<?xml version="1.0" encoding="UTF-8" standalone="no" ?>
<gpx xmlns="http://www.topografix.com/GPX/1/1" xmlns:xsi="http://www.w3.org/2001/XMLSchema-instance" xsi:schemaLocation="http://www.topografix.com/GPX/1/1 http://www.topografix.com/GPX/1/1/gpx.xsd" version="1.1" creator="VisuGPX - https://www.visugpx.com">
  <metadata>
    <name>Descente Canche Hesdin-Montreuil en canoë</name>
    <desc><![CDATA[Descente de la Canche en canoê entre Hesdin et Montreuil.
Les points difficiles et portages sont indiqués.]]></desc>
  </metadata>
  <wpt lat="50.4283" lon="1.90736">
    <ele>8</ele>
    <name><![CDATA[Arche Droite!]]></name>
    <desc><![CDATA[20-MAI-12 15:34:14]]></desc>
    <cmt><![CDATA[20-MAI-12 15:34:14]]></cmt>
  </wpt>
  <wpt lat="50.44578" lon="1.85908">
    <ele>8</ele>
    <name><![CDATA[Barrage]]></name>
    <desc><![CDATA[Barrage]]></desc>
    <cmt><![CDATA[Barrage]]></cmt>
  </wpt>
  <wpt lat="50.37904" lon="2.03891">
    <ele>22</ele>
    <name><![CDATA[Depart]]></name>
    <desc><![CDATA[20-MAI-12 11:43:41]]></desc>
    <cmt><![CDATA[20-MAI-12 11:43:41]]></cmt>
  </wpt>
  <wpt lat="50.46559" lon="1.7709">
    <ele>8</ele>
    <name><![CDATA[Parking]]></name>
    <desc><![CDATA[Route]]></desc>
    <cmt><![CDATA[Route]]></cmt>
  </wpt>
  <wpt lat="50.41578" lon="1.91117">
    <ele>17</ele>
    <name><![CDATA[passer à droite]]></name>
    <desc><![CDATA[Route]]></desc>
    <cmt><![CDATA[Route]]></cmt>
  </wpt>
  <wpt lat="50.44514" lon="1.85956">
    <ele>10.5</ele>
    <name><![CDATA[Portage]]></name>
    <desc><![CDATA[20-MAI-12 16:22:21]]></desc>
    <cmt><![CDATA[20-MAI-12 16:22:21]]></cmt>
  </wpt>
  <wpt lat="50.44738" lon="1.83553">
    <ele>9</ele>
    <name><![CDATA[Portage2]]></name>
    <desc><![CDATA[La Canche]]></desc>
    <cmt><![CDATA[La Canche]]></cmt>
  </wpt>
  <wpt lat="50.46672" lon="1.76917">
    <ele>8</ele>
    <name><![CDATA[rapide]]></name>
    <desc><![CDATA[La Canche]]></desc>
    <cmt><![CDATA[La Canche]]></cmt>
  </wpt>
  <wpt lat="50.42809" lon="1.90673">
    <ele>14</ele>
    <name><![CDATA[Rappel]]></name>
    <desc><![CDATA[Chemin]]></desc>
    <cmt><![CDATA[Chemin]]></cmt>
  </wpt>
  <wpt lat="50.4102" lon="1.93771">
    <ele>18</ele>
    <name><![CDATA[Virage dangereux]]></name>
    <desc><![CDATA[La Canche]]></desc>
    <cmt><![CDATA[La Canche]]></cmt>
  </wpt>
  <trk>
    <name><![CDATA[ACTIVE LOG 017]]></name>
    <trkseg>
      <trkpt lat="50.3792" lon="2.0389">
        <ele>30.4188232</ele>
        <time>2012-05-20T10:11:47Z</time>
      </trkpt>
      <trkpt lat="50.37917" lon="2.03871">
        <ele>29.9381104</ele>
        <time>2012-05-20T10:12:48Z</time>
      </trkpt>
      <trkpt lat="50.37908" lon="2.03814">
        <ele>27.0543213</ele>
        <time>2012-05-20T10:13:10Z</time>
      </trkpt>
      <trkpt lat="50.37914" lon="2.03765">
        <ele>25.6123047</ele>
        <time>2012-05-20T10:13:34Z</time>
      </trkpt>
      <trkpt lat="50.37923" lon="2.03726">
        <ele>22.7282715</ele>
        <time>2012-05-20T10:13:57Z</time>
      </trkpt>
      <trkpt lat="50.37924" lon="2.03721">
        <ele>22.2475586</ele>
        <time>2012-05-20T10:14:01Z</time>
      </trkpt>
      <trkpt lat="50.37938" lon="2.03665">
        <ele>21.286377</ele>
        <time>2012-05-20T10:14:30Z</time>
      </trkpt>
      <trkpt lat="50.3795" lon="2.03617">
        <ele>21.286377</ele>
        <time>2012-05-20T10:14:53Z</time>
      </trkpt>
      <trkpt lat="50.37953" lon="2.03612">
        <ele>24.1702881</ele>
        <time>2012-05-20T10:15:19Z</time>
      </trkpt>
      <trkpt lat="50.37956" lon="2.03573">
        <ele>16.9604492</ele>
        <time>2012-05-20T10:15:42Z</time>
      </trkpt>
      <trkpt lat="50.37961" lon="2.03528">
        <ele>15.5184326</ele>
        <time>2012-05-20T10:16:06Z</time>
      </trkpt>
      <trkpt lat="50.37966" lon="2.03511">
        <ele>16.9604492</ele>
        <time>2012-05-20T10:16:18Z</time>
      </trkpt>
      <trkpt lat="50.3798" lon="2.03456">
        <ele>20.3249512</ele>
        <time>2012-05-20T10:16:41Z</time>
      </trkpt>
      <trkpt lat="50.37985" lon="2.03384">
        <ele>19.8443604</ele>
        <time>2012-05-20T10:17:04Z</time>
      </trkpt>
      <trkpt lat="50.37999" lon="2.03344">
        <ele>18.8830566</ele>
        <time>2012-05-20T10:17:26Z</time>
      </trkpt>
      <trkpt lat="50.38" lon="2.0331">
        <ele>18.8830566</ele>
        <time>2012-05-20T10:17:46Z</time>
      </trkpt>
      <trkpt lat="50.38002" lon="2.03306">
        <ele>18.8830566</ele>
        <time>2012-05-20T10:17:49Z</time>
      </trkpt>
      <trkpt lat="50.38004" lon="2.03271">
        <ele>18.4023438</ele>
        <time>2012-05-20T10:18:09Z</time>
      </trkpt>
      <trkpt lat="50.37979" lon="2.03224">
        <ele>17.9217529</ele>
        <time>2012-05-20T10:18:32Z</time>
      </trkpt>
      <trkpt lat="50.3797" lon="2.03171">
        <ele>17.4411621</ele>
        <time>2012-05-20T10:18:54Z</time>
      </trkpt>
      <trkpt lat="50.3797" lon="2.03168">
        <ele>17.4411621</ele>
        <time>2012-05-20T10:18:55Z</time>
      </trkpt>
      <trkpt lat="50.37981" lon="2.03118">
        <ele>16.9604492</ele>
        <time>2012-05-20T10:19:16Z</time>
      </trkpt>
      <trkpt lat="50.37978" lon="2.03082">
        <ele>15.9990234</ele>
        <time>2012-05-20T10:19:35Z</time>
      </trkpt>
      <trkpt lat="50.37976" lon="2.03026">
        <ele>16.4797363</ele>
        <time>2012-05-20T10:19:55Z</time>
      </trkpt>
      <trkpt lat="50.3797" lon="2.0297">
        <ele>14.5570068</ele>
        <time>2012-05-20T10:20:14Z</time>
      </trkpt>
      <trkpt lat="50.37952" lon="2.02901">
        <ele>14.5570068</ele>
        <time>2012-05-20T10:20:41Z</time>
      </trkpt>
      <trkpt lat="50.37925" lon="2.02849">
        <ele>14.5570068</ele>
        <time>2012-05-20T10:21:02Z</time>
      </trkpt>
      <trkpt lat="50.37901" lon="2.02794">
        <ele>14.076416</ele>
        <time>2012-05-20T10:21:25Z</time>
      </trkpt>
      <trkpt lat="50.37869" lon="2.02767">
        <ele>15.0377197</ele>
        <time>2012-05-20T10:21:44Z</time>
      </trkpt>
      <trkpt lat="50.37854" lon="2.02724">
        <ele>15.5184326</ele>
        <time>2012-05-20T10:22:05Z</time>
      </trkpt>
      <trkpt lat="50.37871" lon="2.0268">
        <ele>17.4411621</ele>
        <time>2012-05-20T10:22:29Z</time>
      </trkpt>
      <trkpt lat="50.37859" lon="2.02637">
        <ele>15.9990234</ele>
        <time>2012-05-20T10:22:47Z</time>
      </trkpt>
      <trkpt lat="50.37827" lon="2.02567">
        <ele>17.4411621</ele>
        <time>2012-05-20T10:23:12Z</time>
      </trkpt>
      <trkpt lat="50.37826" lon="2.02507">
        <ele>15.9990234</ele>
        <time>2012-05-20T10:23:31Z</time>
      </trkpt>
      <trkpt lat="50.37848" lon="2.02461">
        <ele>16.9604492</ele>
        <time>2012-05-20T10:23:51Z</time>
      </trkpt>
      <trkpt lat="50.37879" lon="2.02463">
        <ele>17.9217529</ele>
        <time>2012-05-20T10:24:13Z</time>
      </trkpt>
      <trkpt lat="50.37907" lon="2.02456">
        <ele>17.4411621</ele>
        <time>2012-05-20T10:24:31Z</time>
      </trkpt>
      <trkpt lat="50.37938" lon="2.02442">
        <ele>17.4411621</ele>
        <time>2012-05-20T10:24:53Z</time>
      </trkpt>
      <trkpt lat="50.37965" lon="2.02463">
        <ele>16.4797363</ele>
        <time>2012-05-20T10:25:12Z</time>
      </trkpt>
      <trkpt lat="50.37994" lon="2.02495">
        <ele>15.0377197</ele>
        <time>2012-05-20T10:25:31Z</time>
      </trkpt>
      <trkpt lat="50.3802" lon="2.0247">
        <ele>15.9990234</ele>
        <time>2012-05-20T10:25:52Z</time>
      </trkpt>
      <trkpt lat="50.38029" lon="2.0241">
        <ele>18.8830566</ele>
        <time>2012-05-20T10:26:15Z</time>
      </trkpt>
      <trkpt lat="50.38014" lon="2.02337">
        <ele>15.5184326</ele>
        <time>2012-05-20T10:26:38Z</time>
      </trkpt>
      <trkpt lat="50.38022" lon="2.02293">
        <ele>16.4797363</ele>
        <time>2012-05-20T10:26:57Z</time>
      </trkpt>
      <trkpt lat="50.38035" lon="2.02239">
        <ele>17.9217529</ele>
        <time>2012-05-20T10:27:26Z</time>
      </trkpt>
      <trkpt lat="50.3804" lon="2.02182">
        <ele>17.9217529</ele>
        <time>2012-05-20T10:27:54Z</time>
      </trkpt>
      <trkpt lat="50.38043" lon="2.02135">
        <ele>19.3637695</ele>
        <time>2012-05-20T10:28:16Z</time>
      </trkpt>
      <trkpt lat="50.38051" lon="2.02096">
        <ele>19.3637695</ele>
        <time>2012-05-20T10:28:40Z</time>
      </trkpt>
      <trkpt lat="50.38059" lon="2.0204">
        <ele>19.8443604</ele>
        <time>2012-05-20T10:29:11Z</time>
      </trkpt>
      <trkpt lat="50.38066" lon="2.01989">
        <ele>20.3249512</ele>
        <time>2012-05-20T10:29:40Z</time>
      </trkpt>
      <trkpt lat="50.38077" lon="2.01886">
        <ele>21.286377</ele>
        <time>2012-05-20T10:30:31Z</time>
      </trkpt>
      <trkpt lat="50.38084" lon="2.01794">
        <ele>20.8056641</ele>
        <time>2012-05-20T10:30:58Z</time>
      </trkpt>
      <trkpt lat="50.38096" lon="2.01726">
        <ele>21.286377</ele>
        <time>2012-05-20T10:31:23Z</time>
      </trkpt>
      <trkpt lat="50.38103" lon="2.01651">
        <ele>21.286377</ele>
        <time>2012-05-20T10:31:47Z</time>
      </trkpt>
      <trkpt lat="50.3811" lon="2.01579">
        <ele>20.8056641</ele>
        <time>2012-05-20T10:32:16Z</time>
      </trkpt>
      <trkpt lat="50.38117" lon="2.0152">
        <ele>22.2475586</ele>
        <time>2012-05-20T10:32:40Z</time>
      </trkpt>
      <trkpt lat="50.38127" lon="2.01449">
        <ele>21.7669678</ele>
        <time>2012-05-20T10:33:05Z</time>
      </trkpt>
      <trkpt lat="50.38132" lon="2.01389">
        <ele>20.3249512</ele>
        <time>2012-05-20T10:33:26Z</time>
      </trkpt>
      <trkpt lat="50.38134" lon="2.01318">
        <ele>20.3249512</ele>
        <time>2012-05-20T10:33:50Z</time>
      </trkpt>
      <trkpt lat="50.38146" lon="2.01265">
        <ele>21.286377</ele>
        <time>2012-05-20T10:34:10Z</time>
      </trkpt>
      <trkpt lat="50.38152" lon="2.01224">
        <ele>21.7669678</ele>
        <time>2012-05-20T10:34:26Z</time>
      </trkpt>
      <trkpt lat="50.3816" lon="2.01169">
        <ele>20.8056641</ele>
        <time>2012-05-20T10:34:45Z</time>
      </trkpt>
      <trkpt lat="50.38169" lon="2.01096">
        <ele>20.3249512</ele>
        <time>2012-05-20T10:35:10Z</time>
      </trkpt>
      <trkpt lat="50.38184" lon="2.01019">
        <ele>20.3249512</ele>
        <time>2012-05-20T10:35:37Z</time>
      </trkpt>
      <trkpt lat="50.38207" lon="2.00966">
        <ele>19.8443604</ele>
        <time>2012-05-20T10:36:00Z</time>
      </trkpt>
      <trkpt lat="50.38229" lon="2.00918">
        <ele>19.3637695</ele>
        <time>2012-05-20T10:36:20Z</time>
      </trkpt>
      <trkpt lat="50.38244" lon="2.00873">
        <ele>17.4411621</ele>
        <time>2012-05-20T10:36:39Z</time>
      </trkpt>
      <trkpt lat="50.38261" lon="2.00822">
        <ele>18.4023438</ele>
        <time>2012-05-20T10:36:59Z</time>
      </trkpt>
      <trkpt lat="50.38283" lon="2.00764">
        <ele>19.3637695</ele>
        <time>2012-05-20T10:37:21Z</time>
      </trkpt>
      <trkpt lat="50.38301" lon="2.00719">
        <ele>20.8056641</ele>
        <time>2012-05-20T10:37:41Z</time>
      </trkpt>
      <trkpt lat="50.38323" lon="2.00665">
        <ele>21.7669678</ele>
        <time>2012-05-20T10:38:07Z</time>
      </trkpt>
      <trkpt lat="50.38346" lon="2.00605">
        <ele>21.7669678</ele>
        <time>2012-05-20T10:38:31Z</time>
      </trkpt>
      <trkpt lat="50.38355" lon="2.00576">
        <ele>19.8443604</ele>
        <time>2012-05-20T10:38:44Z</time>
      </trkpt>
      <trkpt lat="50.38379" lon="2.00518">
        <ele>19.8443604</ele>
        <time>2012-05-20T10:39:08Z</time>
      </trkpt>
      <trkpt lat="50.38405" lon="2.0045">
        <ele>19.8443604</ele>
        <time>2012-05-20T10:39:34Z</time>
      </trkpt>
      <trkpt lat="50.38429" lon="2.0039">
        <ele>18.8830566</ele>
        <time>2012-05-20T10:39:59Z</time>
      </trkpt>
      <trkpt lat="50.38456" lon="2.00326">
        <ele>18.4023438</ele>
        <time>2012-05-20T10:40:26Z</time>
      </trkpt>
      <trkpt lat="50.38457" lon="2.003">
        <ele>19.8443604</ele>
        <time>2012-05-20T10:40:46Z</time>
      </trkpt>
      <trkpt lat="50.38455" lon="2.00292">
        <ele>21.7669678</ele>
        <time>2012-05-20T10:41:20Z</time>
      </trkpt>
      <trkpt lat="50.38456" lon="2.0029">
        <ele>19.8443604</ele>
        <time>2012-05-20T10:43:35Z</time>
      </trkpt>
      <trkpt lat="50.38457" lon="2.00289">
        <ele>18.8830566</ele>
        <time>2012-05-20T10:44:58Z</time>
      </trkpt>
      <trkpt lat="50.38457" lon="2.00293">
        <ele>19.8443604</ele>
        <time>2012-05-20T10:45:28Z</time>
      </trkpt>
      <trkpt lat="50.38457" lon="2.00292">
        <ele>20.8056641</ele>
        <time>2012-05-20T10:46:04Z</time>
      </trkpt>
      <trkpt lat="50.38456" lon="2.00291">
        <ele>28.0155029</ele>
        <time>2012-05-20T10:46:45Z</time>
      </trkpt>
      <trkpt lat="50.38461" lon="2.00291">
        <ele>21.286377</ele>
        <time>2012-05-20T11:02:03Z</time>
      </trkpt>
      <trkpt lat="50.38483" lon="2.00248">
        <ele>20.3249512</ele>
        <time>2012-05-20T11:02:27Z</time>
      </trkpt>
      <trkpt lat="50.38503" lon="2.00195">
        <ele>21.286377</ele>
        <time>2012-05-20T11:02:47Z</time>
      </trkpt>
      <trkpt lat="50.38534" lon="2.00111">
        <ele>19.3637695</ele>
        <time>2012-05-20T11:03:15Z</time>
      </trkpt>
      <trkpt lat="50.38564" lon="2.00037">
        <ele>18.8830566</ele>
        <time>2012-05-20T11:03:42Z</time>
      </trkpt>
      <trkpt lat="50.38589" lon="1.99966">
        <ele>18.8830566</ele>
        <time>2012-05-20T11:04:05Z</time>
      </trkpt>
      <trkpt lat="50.38617" lon="1.99901">
        <ele>18.8830566</ele>
        <time>2012-05-20T11:04:33Z</time>
      </trkpt>
      <trkpt lat="50.38646" lon="1.9983">
        <ele>19.8443604</ele>
        <time>2012-05-20T11:05:01Z</time>
      </trkpt>
      <trkpt lat="50.38676" lon="1.99777">
        <ele>19.3637695</ele>
        <time>2012-05-20T11:05:24Z</time>
      </trkpt>
      <trkpt lat="50.38707" lon="1.99724">
        <ele>18.8830566</ele>
        <time>2012-05-20T11:05:47Z</time>
      </trkpt>
      <trkpt lat="50.38743" lon="1.99673">
        <ele>20.3249512</ele>
        <time>2012-05-20T11:06:12Z</time>
      </trkpt>
      <trkpt lat="50.3876" lon="1.99646">
        <ele>21.286377</ele>
        <time>2012-05-20T11:06:36Z</time>
      </trkpt>
      <trkpt lat="50.3878" lon="1.99615">
        <ele>20.8056641</ele>
        <time>2012-05-20T11:06:59Z</time>
      </trkpt>
      <trkpt lat="50.38805" lon="1.99577">
        <ele>21.286377</ele>
        <time>2012-05-20T11:07:27Z</time>
      </trkpt>
      <trkpt lat="50.38835" lon="1.99532">
        <ele>20.3249512</ele>
        <time>2012-05-20T11:07:58Z</time>
      </trkpt>
      <trkpt lat="50.38858" lon="1.9949">
        <ele>20.3249512</ele>
        <time>2012-05-20T11:08:24Z</time>
      </trkpt>
      <trkpt lat="50.38879" lon="1.99455">
        <ele>20.3249512</ele>
        <time>2012-05-20T11:08:46Z</time>
      </trkpt>
      <trkpt lat="50.38904" lon="1.99411">
        <ele>21.7669678</ele>
        <time>2012-05-20T11:09:16Z</time>
      </trkpt>
      <trkpt lat="50.38926" lon="1.99382">
        <ele>22.2475586</ele>
        <time>2012-05-20T11:09:38Z</time>
      </trkpt>
      <trkpt lat="50.38948" lon="1.99334">
        <ele>19.3637695</ele>
        <time>2012-05-20T11:10:02Z</time>
      </trkpt>
      <trkpt lat="50.38983" lon="1.99276">
        <ele>20.8056641</ele>
        <time>2012-05-20T11:10:30Z</time>
      </trkpt>
      <trkpt lat="50.39014" lon="1.99225">
        <ele>20.8056641</ele>
        <time>2012-05-20T11:10:55Z</time>
      </trkpt>
      <trkpt lat="50.39048" lon="1.99171">
        <ele>20.8056641</ele>
        <time>2012-05-20T11:11:20Z</time>
      </trkpt>
      <trkpt lat="50.39083" lon="1.99111">
        <ele>21.286377</ele>
        <time>2012-05-20T11:11:46Z</time>
      </trkpt>
      <trkpt lat="50.39103" lon="1.99075">
        <ele>20.3249512</ele>
        <time>2012-05-20T11:12:08Z</time>
      </trkpt>
      <trkpt lat="50.39108" lon="1.9907">
        <ele>19.3637695</ele>
        <time>2012-05-20T11:12:28Z</time>
      </trkpt>
      <trkpt lat="50.391" lon="1.99088">
        <ele>21.7669678</ele>
        <time>2012-05-20T11:12:57Z</time>
      </trkpt>
      <trkpt lat="50.39097" lon="1.99096">
        <ele>21.286377</ele>
        <time>2012-05-20T11:13:25Z</time>
      </trkpt>
      <trkpt lat="50.39102" lon="1.99085">
        <ele>21.286377</ele>
        <time>2012-05-20T11:14:41Z</time>
      </trkpt>
      <trkpt lat="50.39102" lon="1.99086">
        <ele>23.6895752</ele>
        <time>2012-05-20T11:15:09Z</time>
      </trkpt>
      <trkpt lat="50.39102" lon="1.99079">
        <ele>25.1317139</ele>
        <time>2012-05-20T11:15:47Z</time>
      </trkpt>
      <trkpt lat="50.39113" lon="1.99058">
        <ele>24.651001</ele>
        <time>2012-05-20T11:16:07Z</time>
      </trkpt>
      <trkpt lat="50.39143" lon="1.99014">
        <ele>22.2475586</ele>
        <time>2012-05-20T11:16:29Z</time>
      </trkpt>
      <trkpt lat="50.39177" lon="1.98961">
        <ele>20.8056641</ele>
        <time>2012-05-20T11:16:52Z</time>
      </trkpt>
      <trkpt lat="50.39213" lon="1.98903">
        <ele>20.8056641</ele>
        <time>2012-05-20T11:17:17Z</time>
      </trkpt>
      <trkpt lat="50.39238" lon="1.9886">
        <ele>20.8056641</ele>
        <time>2012-05-20T11:17:40Z</time>
      </trkpt>
      <trkpt lat="50.39267" lon="1.98812">
        <ele>20.8056641</ele>
        <time>2012-05-20T11:18:11Z</time>
      </trkpt>
      <trkpt lat="50.39293" lon="1.9877">
        <ele>19.3637695</ele>
        <time>2012-05-20T11:18:40Z</time>
      </trkpt>
      <trkpt lat="50.39317" lon="1.98725">
        <ele>20.3249512</ele>
        <time>2012-05-20T11:19:03Z</time>
      </trkpt>
      <trkpt lat="50.39343" lon="1.98686">
        <ele>18.8830566</ele>
        <time>2012-05-20T11:19:25Z</time>
      </trkpt>
      <trkpt lat="50.39375" lon="1.98631">
        <ele>18.8830566</ele>
        <time>2012-05-20T11:19:50Z</time>
      </trkpt>
      <trkpt lat="50.39389" lon="1.98607">
        <ele>22.7282715</ele>
        <time>2012-05-20T11:20:01Z</time>
      </trkpt>
      <trkpt lat="50.39407" lon="1.98577">
        <ele>23.2089844</ele>
        <time>2012-05-20T11:20:25Z</time>
      </trkpt>
      <trkpt lat="50.39402" lon="1.98581">
        <ele>20.8056641</ele>
        <time>2012-05-20T11:20:44Z</time>
      </trkpt>
      <trkpt lat="50.39391" lon="1.98599">
        <ele>22.2475586</ele>
        <time>2012-05-20T11:21:02Z</time>
      </trkpt>
      <trkpt lat="50.39385" lon="1.98612">
        <ele>21.286377</ele>
        <time>2012-05-20T11:21:22Z</time>
      </trkpt>
      <trkpt lat="50.39391" lon="1.98601">
        <ele>20.3249512</ele>
        <time>2012-05-20T11:21:49Z</time>
      </trkpt>
      <trkpt lat="50.39397" lon="1.98588">
        <ele>20.3249512</ele>
        <time>2012-05-20T11:22:20Z</time>
      </trkpt>
      <trkpt lat="50.39401" lon="1.98584">
        <ele>16.9604492</ele>
        <time>2012-05-20T11:23:02Z</time>
      </trkpt>
      <trkpt lat="50.39404" lon="1.9858">
        <ele>19.3637695</ele>
        <time>2012-05-20T11:23:25Z</time>
      </trkpt>
      <trkpt lat="50.39394" lon="1.98592">
        <ele>19.8443604</ele>
        <time>2012-05-20T11:23:51Z</time>
      </trkpt>
      <trkpt lat="50.39393" lon="1.98594">
        <ele>19.3637695</ele>
        <time>2012-05-20T11:24:31Z</time>
      </trkpt>
      <trkpt lat="50.39395" lon="1.98597">
        <ele>17.9217529</ele>
        <time>2012-05-20T11:25:20Z</time>
      </trkpt>
      <trkpt lat="50.39399" lon="1.98591">
        <ele>16.4797363</ele>
        <time>2012-05-20T11:25:47Z</time>
      </trkpt>
      <trkpt lat="50.39406" lon="1.98579">
        <ele>17.4411621</ele>
        <time>2012-05-20T11:26:23Z</time>
      </trkpt>
      <trkpt lat="50.39413" lon="1.98568">
        <ele>18.4023438</ele>
        <time>2012-05-20T11:26:40Z</time>
      </trkpt>
      <trkpt lat="50.39432" lon="1.9855">
        <ele>19.3637695</ele>
        <time>2012-05-20T11:26:58Z</time>
      </trkpt>
      <trkpt lat="50.39457" lon="1.9851">
        <ele>18.8830566</ele>
        <time>2012-05-20T11:27:21Z</time>
      </trkpt>
      <trkpt lat="50.39482" lon="1.98462">
        <ele>19.8443604</ele>
        <time>2012-05-20T11:27:47Z</time>
      </trkpt>
      <trkpt lat="50.39507" lon="1.98418">
        <ele>19.8443604</ele>
        <time>2012-05-20T11:28:08Z</time>
      </trkpt>
      <trkpt lat="50.39543" lon="1.98362">
        <ele>17.9217529</ele>
        <time>2012-05-20T11:28:34Z</time>
      </trkpt>
      <trkpt lat="50.39571" lon="1.98311">
        <ele>17.9217529</ele>
        <time>2012-05-20T11:28:58Z</time>
      </trkpt>
      <trkpt lat="50.39605" lon="1.98255">
        <ele>15.9990234</ele>
        <time>2012-05-20T11:29:24Z</time>
      </trkpt>
      <trkpt lat="50.39639" lon="1.98192">
        <ele>18.4023438</ele>
        <time>2012-05-20T11:29:49Z</time>
      </trkpt>
      <trkpt lat="50.39666" lon="1.98145">
        <ele>20.3249512</ele>
        <time>2012-05-20T11:30:11Z</time>
      </trkpt>
      <trkpt lat="50.39708" lon="1.98087">
        <ele>17.9217529</ele>
        <time>2012-05-20T11:30:39Z</time>
      </trkpt>
      <trkpt lat="50.39744" lon="1.98026">
        <ele>19.3637695</ele>
        <time>2012-05-20T11:31:08Z</time>
      </trkpt>
      <trkpt lat="50.39782" lon="1.97991">
        <ele>20.3249512</ele>
        <time>2012-05-20T11:31:32Z</time>
      </trkpt>
      <trkpt lat="50.39807" lon="1.97962">
        <ele>18.8830566</ele>
        <time>2012-05-20T11:31:54Z</time>
      </trkpt>
      <trkpt lat="50.3983" lon="1.97935">
        <ele>17.9217529</ele>
        <time>2012-05-20T11:32:15Z</time>
      </trkpt>
      <trkpt lat="50.39864" lon="1.97888">
        <ele>18.4023438</ele>
        <time>2012-05-20T11:32:35Z</time>
      </trkpt>
      <trkpt lat="50.39909" lon="1.97826">
        <ele>20.8056641</ele>
        <time>2012-05-20T11:32:58Z</time>
      </trkpt>
      <trkpt lat="50.3995" lon="1.97757">
        <ele>20.8056641</ele>
        <time>2012-05-20T11:33:19Z</time>
      </trkpt>
      <trkpt lat="50.39969" lon="1.97685">
        <ele>20.3249512</ele>
        <time>2012-05-20T11:33:41Z</time>
      </trkpt>
      <trkpt lat="50.39988" lon="1.9763">
        <ele>18.8830566</ele>
        <time>2012-05-20T11:34:00Z</time>
      </trkpt>
      <trkpt lat="50.40024" lon="1.97566">
        <ele>18.4023438</ele>
        <time>2012-05-20T11:34:19Z</time>
      </trkpt>
      <trkpt lat="50.40053" lon="1.97524">
        <ele>17.9217529</ele>
        <time>2012-05-20T11:34:35Z</time>
      </trkpt>
      <trkpt lat="50.40081" lon="1.97478">
        <ele>17.4411621</ele>
        <time>2012-05-20T11:34:53Z</time>
      </trkpt>
      <trkpt lat="50.40088" lon="1.97408">
        <ele>17.9217529</ele>
        <time>2012-05-20T11:35:12Z</time>
      </trkpt>
      <trkpt lat="50.40107" lon="1.97331">
        <ele>17.4411621</ele>
        <time>2012-05-20T11:35:35Z</time>
      </trkpt>
      <trkpt lat="50.40114" lon="1.9724">
        <ele>15.0377197</ele>
        <time>2012-05-20T11:36:04Z</time>
      </trkpt>
      <trkpt lat="50.40132" lon="1.97199">
        <ele>16.4797363</ele>
        <time>2012-05-20T11:36:26Z</time>
      </trkpt>
      <trkpt lat="50.40167" lon="1.97207">
        <ele>17.4411621</ele>
        <time>2012-05-20T11:36:49Z</time>
      </trkpt>
      <trkpt lat="50.40203" lon="1.972">
        <ele>17.9217529</ele>
        <time>2012-05-20T11:37:18Z</time>
      </trkpt>
      <trkpt lat="50.40234" lon="1.97176">
        <ele>15.9990234</ele>
        <time>2012-05-20T11:37:50Z</time>
      </trkpt>
      <trkpt lat="50.40251" lon="1.97145">
        <ele>17.9217529</ele>
        <time>2012-05-20T11:38:14Z</time>
      </trkpt>
      <trkpt lat="50.40244" lon="1.9709">
        <ele>17.9217529</ele>
        <time>2012-05-20T11:38:35Z</time>
      </trkpt>
      <trkpt lat="50.40243" lon="1.97033">
        <ele>16.4797363</ele>
        <time>2012-05-20T11:38:55Z</time>
      </trkpt>
      <trkpt lat="50.40258" lon="1.96992">
        <ele>15.5184326</ele>
        <time>2012-05-20T11:39:17Z</time>
      </trkpt>
      <trkpt lat="50.40291" lon="1.96949">
        <ele>16.9604492</ele>
        <time>2012-05-20T11:39:46Z</time>
      </trkpt>
      <trkpt lat="50.40318" lon="1.96935">
        <ele>18.4023438</ele>
        <time>2012-05-20T11:40:05Z</time>
      </trkpt>
      <trkpt lat="50.40351" lon="1.96902">
        <ele>18.8830566</ele>
        <time>2012-05-20T11:40:27Z</time>
      </trkpt>
      <trkpt lat="50.40354" lon="1.96845">
        <ele>21.286377</ele>
        <time>2012-05-20T11:40:51Z</time>
      </trkpt>
      <trkpt lat="50.40357" lon="1.96836">
        <ele>20.8056641</ele>
        <time>2012-05-20T11:41:11Z</time>
      </trkpt>
      <trkpt lat="50.40357" lon="1.96841">
        <ele>21.7669678</ele>
        <time>2012-05-20T11:41:15Z</time>
      </trkpt>
      <trkpt lat="50.40353" lon="1.96871">
        <ele>21.7669678</ele>
        <time>2012-05-20T11:41:35Z</time>
      </trkpt>
      <trkpt lat="50.40352" lon="1.96867">
        <ele>20.3249512</ele>
        <time>2012-05-20T11:41:50Z</time>
      </trkpt>
      <trkpt lat="50.40353" lon="1.9686">
        <ele>21.7669678</ele>
        <time>2012-05-20T11:42:10Z</time>
      </trkpt>
      <trkpt lat="50.40355" lon="1.96849">
        <ele>23.2089844</ele>
        <time>2012-05-20T11:42:27Z</time>
      </trkpt>
      <trkpt lat="50.40352" lon="1.9683">
        <ele>25.6123047</ele>
        <time>2012-05-20T11:43:00Z</time>
      </trkpt>
      <trkpt lat="50.40352" lon="1.96814">
        <ele>21.7669678</ele>
        <time>2012-05-20T11:43:15Z</time>
      </trkpt>
      <trkpt lat="50.40357" lon="1.96763">
        <ele>19.3637695</ele>
        <time>2012-05-20T11:43:35Z</time>
      </trkpt>
      <trkpt lat="50.40384" lon="1.96717">
        <ele>17.4411621</ele>
        <time>2012-05-20T11:43:54Z</time>
      </trkpt>
      <trkpt lat="50.40415" lon="1.96673">
        <ele>19.3637695</ele>
        <time>2012-05-20T11:44:14Z</time>
      </trkpt>
      <trkpt lat="50.40421" lon="1.96612">
        <ele>19.3637695</ele>
        <time>2012-05-20T11:44:34Z</time>
      </trkpt>
      <trkpt lat="50.4041" lon="1.96549">
        <ele>18.8830566</ele>
        <time>2012-05-20T11:44:53Z</time>
      </trkpt>
      <trkpt lat="50.4041" lon="1.96474">
        <ele>18.4023438</ele>
        <time>2012-05-20T11:45:18Z</time>
      </trkpt>
      <trkpt lat="50.4042" lon="1.96421">
        <ele>16.9604492</ele>
        <time>2012-05-20T11:45:36Z</time>
      </trkpt>
      <trkpt lat="50.40425" lon="1.96344">
        <ele>17.4411621</ele>
        <time>2012-05-20T11:45:58Z</time>
      </trkpt>
      <trkpt lat="50.40425" lon="1.96265">
        <ele>16.4797363</ele>
        <time>2012-05-20T11:46:21Z</time>
      </trkpt>
      <trkpt lat="50.4044" lon="1.96201">
        <ele>16.9604492</ele>
        <time>2012-05-20T11:46:42Z</time>
      </trkpt>
      <trkpt lat="50.40423" lon="1.96155">
        <ele>17.4411621</ele>
        <time>2012-05-20T11:47:02Z</time>
      </trkpt>
      <trkpt lat="50.4039" lon="1.96156">
        <ele>18.4023438</ele>
        <time>2012-05-20T11:47:22Z</time>
      </trkpt>
      <trkpt lat="50.40352" lon="1.96146">
        <ele>18.8830566</ele>
        <time>2012-05-20T11:47:42Z</time>
      </trkpt>
      <trkpt lat="50.4035" lon="1.9609">
        <ele>18.4023438</ele>
        <time>2012-05-20T11:48:02Z</time>
      </trkpt>
      <trkpt lat="50.40375" lon="1.96032">
        <ele>17.4411621</ele>
        <time>2012-05-20T11:48:24Z</time>
      </trkpt>
      <trkpt lat="50.40412" lon="1.95979">
        <ele>15.9990234</ele>
        <time>2012-05-20T11:48:49Z</time>
      </trkpt>
      <trkpt lat="50.40431" lon="1.95927">
        <ele>15.9990234</ele>
        <time>2012-05-20T11:49:10Z</time>
      </trkpt>
      <trkpt lat="50.40437" lon="1.95854">
        <ele>15.9990234</ele>
        <time>2012-05-20T11:49:34Z</time>
      </trkpt>
      <trkpt lat="50.40413" lon="1.9582">
        <ele>15.5184326</ele>
        <time>2012-05-20T11:49:54Z</time>
      </trkpt>
      <trkpt lat="50.40377" lon="1.95787">
        <ele>14.5570068</ele>
        <time>2012-05-20T11:50:16Z</time>
      </trkpt>
      <trkpt lat="50.40374" lon="1.95729">
        <ele>12.1538086</ele>
        <time>2012-05-20T11:50:35Z</time>
      </trkpt>
      <trkpt lat="50.40403" lon="1.95656">
        <ele>11.1925049</ele>
        <time>2012-05-20T11:51:01Z</time>
      </trkpt>
      <trkpt lat="50.40438" lon="1.95605">
        <ele>9.7506104</ele>
        <time>2012-05-20T11:51:27Z</time>
      </trkpt>
      <trkpt lat="50.40477" lon="1.9558">
        <ele>14.076416</ele>
        <time>2012-05-20T11:51:50Z</time>
      </trkpt>
      <trkpt lat="50.40505" lon="1.95535">
        <ele>15.9990234</ele>
        <time>2012-05-20T11:52:11Z</time>
      </trkpt>
      <trkpt lat="50.40514" lon="1.95484">
        <ele>17.9217529</ele>
        <time>2012-05-20T11:52:31Z</time>
      </trkpt>
      <trkpt lat="50.40489" lon="1.95451">
        <ele>16.9604492</ele>
        <time>2012-05-20T11:52:51Z</time>
      </trkpt>
      <trkpt lat="50.4047" lon="1.954">
        <ele>16.4797363</ele>
        <time>2012-05-20T11:53:11Z</time>
      </trkpt>
      <trkpt lat="50.40472" lon="1.95325">
        <ele>18.8830566</ele>
        <time>2012-05-20T11:53:34Z</time>
      </trkpt>
      <trkpt lat="50.40473" lon="1.9525">
        <ele>18.8830566</ele>
        <time>2012-05-20T11:53:56Z</time>
      </trkpt>
      <trkpt lat="50.40463" lon="1.95189">
        <ele>18.8830566</ele>
        <time>2012-05-20T11:54:17Z</time>
      </trkpt>
      <trkpt lat="50.40453" lon="1.95135">
        <ele>19.8443604</ele>
        <time>2012-05-20T11:54:36Z</time>
      </trkpt>
      <trkpt lat="50.40449" lon="1.9511">
        <ele>20.3249512</ele>
        <time>2012-05-20T11:54:45Z</time>
      </trkpt>
      <trkpt lat="50.40451" lon="1.951">
        <ele>20.3249512</ele>
        <time>2012-05-20T11:54:49Z</time>
      </trkpt>
      <trkpt lat="50.4046" lon="1.9504">
        <ele>20.8056641</ele>
        <time>2012-05-20T11:55:09Z</time>
      </trkpt>
      <trkpt lat="50.40488" lon="1.94951">
        <ele>23.6895752</ele>
        <time>2012-05-20T11:55:47Z</time>
      </trkpt>
      <trkpt lat="50.40512" lon="1.94963">
        <ele>24.1702881</ele>
        <time>2012-05-20T11:56:03Z</time>
      </trkpt>
      <trkpt lat="50.40543" lon="1.94978">
        <ele>23.6895752</ele>
        <time>2012-05-20T11:56:21Z</time>
      </trkpt>
      <trkpt lat="50.40573" lon="1.94966">
        <ele>19.8443604</ele>
        <time>2012-05-20T11:56:39Z</time>
      </trkpt>
      <trkpt lat="50.40593" lon="1.94925">
        <ele>20.8056641</ele>
        <time>2012-05-20T11:56:59Z</time>
      </trkpt>
      <trkpt lat="50.40606" lon="1.94861">
        <ele>19.3637695</ele>
        <time>2012-05-20T11:57:22Z</time>
      </trkpt>
      <trkpt lat="50.40597" lon="1.94809">
        <ele>16.9604492</ele>
        <time>2012-05-20T11:57:41Z</time>
      </trkpt>
      <trkpt lat="50.40603" lon="1.94754">
        <ele>15.9990234</ele>
        <time>2012-05-20T11:58:04Z</time>
      </trkpt>
      <trkpt lat="50.406" lon="1.94741">
        <ele>2.0600586</ele>
        <time>2012-05-20T11:58:09Z</time>
      </trkpt>
      <trkpt lat="50.40603" lon="1.94676">
        <ele>9.2698975</ele>
        <time>2012-05-20T11:58:33Z</time>
      </trkpt>
      <trkpt lat="50.40618" lon="1.94628">
        <ele>15.5184326</ele>
        <time>2012-05-20T11:58:57Z</time>
      </trkpt>
      <trkpt lat="50.40648" lon="1.94606">
        <ele>18.8830566</ele>
        <time>2012-05-20T11:59:16Z</time>
      </trkpt>
      <trkpt lat="50.40682" lon="1.94598">
        <ele>20.3249512</ele>
        <time>2012-05-20T11:59:36Z</time>
      </trkpt>
      <trkpt lat="50.40723" lon="1.94577">
        <ele>18.4023438</ele>
        <time>2012-05-20T12:00:01Z</time>
      </trkpt>
      <trkpt lat="50.40731" lon="1.94525">
        <ele>16.9604492</ele>
        <time>2012-05-20T12:00:21Z</time>
      </trkpt>
      <trkpt lat="50.40746" lon="1.94459">
        <ele>15.0377197</ele>
        <time>2012-05-20T12:00:44Z</time>
      </trkpt>
      <trkpt lat="50.40749" lon="1.94396">
        <ele>13.5958252</ele>
        <time>2012-05-20T12:01:07Z</time>
      </trkpt>
      <trkpt lat="50.4073" lon="1.9435">
        <ele>12.6343994</ele>
        <time>2012-05-20T12:01:29Z</time>
      </trkpt>
      <trkpt lat="50.40711" lon="1.94302">
        <ele>12.6343994</ele>
        <time>2012-05-20T12:01:52Z</time>
      </trkpt>
      <trkpt lat="50.40718" lon="1.94272">
        <ele>12.6343994</ele>
        <time>2012-05-20T12:02:11Z</time>
      </trkpt>
      <trkpt lat="50.40741" lon="1.9424">
        <ele>11.6732178</ele>
        <time>2012-05-20T12:02:31Z</time>
      </trkpt>
      <trkpt lat="50.40762" lon="1.9421">
        <ele>12.1538086</ele>
        <time>2012-05-20T12:02:52Z</time>
      </trkpt>
      <trkpt lat="50.40794" lon="1.94196">
        <ele>12.6343994</ele>
        <time>2012-05-20T12:03:14Z</time>
      </trkpt>
      <trkpt lat="50.40818" lon="1.94187">
        <ele>14.076416</ele>
        <time>2012-05-20T12:03:29Z</time>
      </trkpt>
      <trkpt lat="50.40857" lon="1.9415">
        <ele>12.6343994</ele>
        <time>2012-05-20T12:03:51Z</time>
      </trkpt>
      <trkpt lat="50.40885" lon="1.94119">
        <ele>12.6343994</ele>
        <time>2012-05-20T12:04:09Z</time>
      </trkpt>
      <trkpt lat="50.40926" lon="1.94078">
        <ele>12.6343994</ele>
        <time>2012-05-20T12:04:35Z</time>
      </trkpt>
      <trkpt lat="50.40951" lon="1.94038">
        <ele>13.1151123</ele>
        <time>2012-05-20T12:04:57Z</time>
      </trkpt>
      <trkpt lat="50.40961" lon="1.93991">
        <ele>14.5570068</ele>
        <time>2012-05-20T12:05:22Z</time>
      </trkpt>
      <trkpt lat="50.40998" lon="1.93844">
        <ele>13.5958252</ele>
        <time>2012-05-20T12:06:10Z</time>
      </trkpt>
      <trkpt lat="50.41021" lon="1.93772">
        <ele>10.2312012</ele>
        <time>2012-05-20T12:06:26Z</time>
      </trkpt>
      <trkpt lat="50.4106" lon="1.937">
        <ele>10.711792</ele>
        <time>2012-05-20T12:06:47Z</time>
      </trkpt>
      <trkpt lat="50.41062" lon="1.93699">
        <ele>10.711792</ele>
        <time>2012-05-20T12:06:48Z</time>
      </trkpt>
      <trkpt lat="50.41084" lon="1.93698">
        <ele>11.1925049</ele>
        <time>2012-05-20T12:07:06Z</time>
      </trkpt>
      <trkpt lat="50.41129" lon="1.93678">
        <ele>10.711792</ele>
        <time>2012-05-20T12:07:26Z</time>
      </trkpt>
      <trkpt lat="50.41182" lon="1.93657">
        <ele>13.1151123</ele>
        <time>2012-05-20T12:07:48Z</time>
      </trkpt>
      <trkpt lat="50.41213" lon="1.93629">
        <ele>13.1151123</ele>
        <time>2012-05-20T12:08:06Z</time>
      </trkpt>
      <trkpt lat="50.4124" lon="1.93585">
        <ele>11.6732178</ele>
        <time>2012-05-20T12:08:26Z</time>
      </trkpt>
      <trkpt lat="50.41255" lon="1.93538">
        <ele>11.1925049</ele>
        <time>2012-05-20T12:08:46Z</time>
      </trkpt>
      <trkpt lat="50.41258" lon="1.93485">
        <ele>12.1538086</ele>
        <time>2012-05-20T12:09:04Z</time>
      </trkpt>
      <trkpt lat="50.41256" lon="1.93416">
        <ele>12.1538086</ele>
        <time>2012-05-20T12:09:27Z</time>
      </trkpt>
      <trkpt lat="50.41256" lon="1.9338">
        <ele>13.5958252</ele>
        <time>2012-05-20T12:09:50Z</time>
      </trkpt>
      <trkpt lat="50.41255" lon="1.93351">
        <ele>15.0377197</ele>
        <time>2012-05-20T12:10:22Z</time>
      </trkpt>
      <trkpt lat="50.41254" lon="1.93338">
        <ele>13.1151123</ele>
        <time>2012-05-20T12:10:43Z</time>
      </trkpt>
      <trkpt lat="50.41254" lon="1.93327">
        <ele>14.076416</ele>
        <time>2012-05-20T12:11:11Z</time>
      </trkpt>
      <trkpt lat="50.41257" lon="1.93306">
        <ele>15.0377197</ele>
        <time>2012-05-20T12:11:40Z</time>
      </trkpt>
      <trkpt lat="50.41258" lon="1.93318">
        <ele>15.5184326</ele>
        <time>2012-05-20T12:11:57Z</time>
      </trkpt>
      <trkpt lat="50.41255" lon="1.93353">
        <ele>15.0377197</ele>
        <time>2012-05-20T12:12:18Z</time>
      </trkpt>
      <trkpt lat="50.41255" lon="1.93378">
        <ele>14.5570068</ele>
        <time>2012-05-20T12:12:43Z</time>
      </trkpt>
      <trkpt lat="50.41257" lon="1.93378">
        <ele>15.5184326</ele>
        <time>2012-05-20T12:13:09Z</time>
      </trkpt>
      <trkpt lat="50.41256" lon="1.93376">
        <ele>14.5570068</ele>
        <time>2012-05-20T12:13:57Z</time>
      </trkpt>
      <trkpt lat="50.41255" lon="1.93381">
        <ele>14.5570068</ele>
        <time>2012-05-20T12:14:19Z</time>
      </trkpt>
      <trkpt lat="50.41259" lon="1.9339">
        <ele>16.4797363</ele>
        <time>2012-05-20T12:14:51Z</time>
      </trkpt>
      <trkpt lat="50.41256" lon="1.93377">
        <ele>16.9604492</ele>
        <time>2012-05-20T12:15:24Z</time>
      </trkpt>
      <trkpt lat="50.41254" lon="1.93352">
        <ele>16.9604492</ele>
        <time>2012-05-20T12:15:49Z</time>
      </trkpt>
      <trkpt lat="50.41253" lon="1.9331">
        <ele>15.0377197</ele>
        <time>2012-05-20T12:16:13Z</time>
      </trkpt>
      <trkpt lat="50.41264" lon="1.93265">
        <ele>15.5184326</ele>
        <time>2012-05-20T12:16:34Z</time>
      </trkpt>
      <trkpt lat="50.41274" lon="1.93215">
        <ele>17.4411621</ele>
        <time>2012-05-20T12:17:02Z</time>
      </trkpt>
      <trkpt lat="50.41278" lon="1.9317">
        <ele>16.9604492</ele>
        <time>2012-05-20T12:17:27Z</time>
      </trkpt>
      <trkpt lat="50.41278" lon="1.93112">
        <ele>15.9990234</ele>
        <time>2012-05-20T12:17:52Z</time>
      </trkpt>
      <trkpt lat="50.41272" lon="1.93065">
        <ele>16.9604492</ele>
        <time>2012-05-20T12:18:14Z</time>
      </trkpt>
      <trkpt lat="50.41263" lon="1.93012">
        <ele>17.4411621</ele>
        <time>2012-05-20T12:18:38Z</time>
      </trkpt>
      <trkpt lat="50.41265" lon="1.92938">
        <ele>15.5184326</ele>
        <time>2012-05-20T12:19:02Z</time>
      </trkpt>
      <trkpt lat="50.41262" lon="1.92871">
        <ele>16.9604492</ele>
        <time>2012-05-20T12:19:23Z</time>
      </trkpt>
      <trkpt lat="50.4127" lon="1.9281">
        <ele>15.5184326</ele>
        <time>2012-05-20T12:19:41Z</time>
      </trkpt>
      <trkpt lat="50.41266" lon="1.92765">
        <ele>15.0377197</ele>
        <time>2012-05-20T12:19:57Z</time>
      </trkpt>
      <trkpt lat="50.41246" lon="1.92708">
        <ele>14.076416</ele>
        <time>2012-05-20T12:20:20Z</time>
      </trkpt>
      <trkpt lat="50.41244" lon="1.92643">
        <ele>14.5570068</ele>
        <time>2012-05-20T12:20:44Z</time>
      </trkpt>
      <trkpt lat="50.41261" lon="1.92616">
        <ele>19.3637695</ele>
        <time>2012-05-20T12:21:00Z</time>
      </trkpt>
      <trkpt lat="50.41276" lon="1.9256">
        <ele>24.651001</ele>
        <time>2012-05-20T12:21:22Z</time>
      </trkpt>
      <trkpt lat="50.41281" lon="1.92532">
        <ele>23.2089844</ele>
        <time>2012-05-20T12:21:40Z</time>
      </trkpt>
      <trkpt lat="50.41279" lon="1.92529">
        <ele>20.8056641</ele>
        <time>2012-05-20T12:22:04Z</time>
      </trkpt>
      <trkpt lat="50.41279" lon="1.92538">
        <ele>24.651001</ele>
        <time>2012-05-20T12:22:27Z</time>
      </trkpt>
      <trkpt lat="50.4128" lon="1.92536">
        <ele>23.6895752</ele>
        <time>2012-05-20T12:22:52Z</time>
      </trkpt>
      <trkpt lat="50.41273" lon="1.92526">
        <ele>23.2089844</ele>
        <time>2012-05-20T12:23:08Z</time>
      </trkpt>
      <trkpt lat="50.41279" lon="1.92509">
        <ele>19.3637695</ele>
        <time>2012-05-20T12:23:28Z</time>
      </trkpt>
      <trkpt lat="50.41289" lon="1.92491">
        <ele>20.3249512</ele>
        <time>2012-05-20T12:23:51Z</time>
      </trkpt>
      <trkpt lat="50.41304" lon="1.92452">
        <ele>15.9990234</ele>
        <time>2012-05-20T12:24:11Z</time>
      </trkpt>
      <trkpt lat="50.41332" lon="1.92419">
        <ele>14.5570068</ele>
        <time>2012-05-20T12:24:31Z</time>
      </trkpt>
      <trkpt lat="50.41345" lon="1.92373">
        <ele>16.4797363</ele>
        <time>2012-05-20T12:24:51Z</time>
      </trkpt>
      <trkpt lat="50.41342" lon="1.92323">
        <ele>19.3637695</ele>
        <time>2012-05-20T12:25:20Z</time>
      </trkpt>
      <trkpt lat="50.41336" lon="1.92296">
        <ele>22.2475586</ele>
        <time>2012-05-20T12:25:46Z</time>
      </trkpt>
      <trkpt lat="50.41336" lon="1.92301">
        <ele>23.6895752</ele>
        <time>2012-05-20T12:26:02Z</time>
      </trkpt>
      <trkpt lat="50.41336" lon="1.92302">
        <ele>23.6895752</ele>
        <time>2012-05-20T12:26:03Z</time>
      </trkpt>
      <trkpt lat="50.41342" lon="1.92337">
        <ele>20.8056641</ele>
        <time>2012-05-20T12:26:25Z</time>
      </trkpt>
      <trkpt lat="50.41343" lon="1.92374">
        <ele>19.8443604</ele>
        <time>2012-05-20T12:26:48Z</time>
      </trkpt>
      <trkpt lat="50.4134" lon="1.92396">
        <ele>19.3637695</ele>
        <time>2012-05-20T12:27:06Z</time>
      </trkpt>
      <trkpt lat="50.41324" lon="1.92426">
        <ele>18.4023438</ele>
        <time>2012-05-20T12:27:30Z</time>
      </trkpt>
      <trkpt lat="50.41317" lon="1.92436">
        <ele>20.3249512</ele>
        <time>2012-05-20T12:27:53Z</time>
      </trkpt>
      <trkpt lat="50.4132" lon="1.92437">
        <ele>15.9990234</ele>
        <time>2012-05-20T12:28:09Z</time>
      </trkpt>
      <trkpt lat="50.41324" lon="1.92426">
        <ele>15.9990234</ele>
        <time>2012-05-20T12:28:32Z</time>
      </trkpt>
      <trkpt lat="50.41327" lon="1.92427">
        <ele>14.5570068</ele>
        <time>2012-05-20T12:28:50Z</time>
      </trkpt>
      <trkpt lat="50.41329" lon="1.92422">
        <ele>16.4797363</ele>
        <time>2012-05-20T12:29:08Z</time>
      </trkpt>
      <trkpt lat="50.41336" lon="1.92414">
        <ele>18.4023438</ele>
        <time>2012-05-20T12:29:32Z</time>
      </trkpt>
      <trkpt lat="50.41343" lon="1.92399">
        <ele>20.3249512</ele>
        <time>2012-05-20T12:30:03Z</time>
      </trkpt>
      <trkpt lat="50.41343" lon="1.92378">
        <ele>20.8056641</ele>
        <time>2012-05-20T12:30:24Z</time>
      </trkpt>
      <trkpt lat="50.41343" lon="1.92371">
        <ele>19.8443604</ele>
        <time>2012-05-20T12:30:28Z</time>
      </trkpt>
      <trkpt lat="50.4134" lon="1.92315">
        <ele>17.9217529</ele>
        <time>2012-05-20T12:30:55Z</time>
      </trkpt>
      <trkpt lat="50.41316" lon="1.92264">
        <ele>20.3249512</ele>
        <time>2012-05-20T12:31:22Z</time>
      </trkpt>
      <trkpt lat="50.41285" lon="1.92209">
        <ele>23.2089844</ele>
        <time>2012-05-20T12:31:49Z</time>
      </trkpt>
      <trkpt lat="50.41285" lon="1.92168">
        <ele>20.8056641</ele>
        <time>2012-05-20T12:32:05Z</time>
      </trkpt>
      <trkpt lat="50.41294" lon="1.92122">
        <ele>20.3249512</ele>
        <time>2012-05-20T12:32:23Z</time>
      </trkpt>
      <trkpt lat="50.41294" lon="1.92051">
        <ele>17.4411621</ele>
        <time>2012-05-20T12:32:45Z</time>
      </trkpt>
      <trkpt lat="50.41323" lon="1.92015">
        <ele>16.9604492</ele>
        <time>2012-05-20T12:33:02Z</time>
      </trkpt>
      <trkpt lat="50.41349" lon="1.91975">
        <ele>18.8830566</ele>
        <time>2012-05-20T12:33:20Z</time>
      </trkpt>
      <trkpt lat="50.41355" lon="1.91931">
        <ele>18.4023438</ele>
        <time>2012-05-20T12:33:39Z</time>
      </trkpt>
      <trkpt lat="50.41355" lon="1.91873">
        <ele>16.9604492</ele>
        <time>2012-05-20T12:33:59Z</time>
      </trkpt>
      <trkpt lat="50.41354" lon="1.91817">
        <ele>14.5570068</ele>
        <time>2012-05-20T12:34:21Z</time>
      </trkpt>
      <trkpt lat="50.41353" lon="1.91795">
        <ele>14.076416</ele>
        <time>2012-05-20T12:34:31Z</time>
      </trkpt>
      <trkpt lat="50.41363" lon="1.91745">
        <ele>14.076416</ele>
        <time>2012-05-20T12:34:50Z</time>
      </trkpt>
      <trkpt lat="50.41373" lon="1.91694">
        <ele>13.1151123</ele>
        <time>2012-05-20T12:35:08Z</time>
      </trkpt>
      <trkpt lat="50.41378" lon="1.9163">
        <ele>11.6732178</ele>
        <time>2012-05-20T12:35:33Z</time>
      </trkpt>
      <trkpt lat="50.41397" lon="1.91588">
        <ele>16.9604492</ele>
        <time>2012-05-20T12:35:55Z</time>
      </trkpt>
      <trkpt lat="50.41435" lon="1.9156">
        <ele>17.4411621</ele>
        <time>2012-05-20T12:36:18Z</time>
      </trkpt>
      <trkpt lat="50.41444" lon="1.91508">
        <ele>13.1151123</ele>
        <time>2012-05-20T12:36:38Z</time>
      </trkpt>
      <trkpt lat="50.4145" lon="1.91434">
        <ele>12.6343994</ele>
        <time>2012-05-20T12:37:02Z</time>
      </trkpt>
      <trkpt lat="50.41478" lon="1.91388">
        <ele>12.6343994</ele>
        <time>2012-05-20T12:37:24Z</time>
      </trkpt>
      <trkpt lat="50.41515" lon="1.91364">
        <ele>12.6343994</ele>
        <time>2012-05-20T12:37:46Z</time>
      </trkpt>
      <trkpt lat="50.41545" lon="1.91314">
        <ele>11.6732178</ele>
        <time>2012-05-20T12:38:13Z</time>
      </trkpt>
      <trkpt lat="50.41553" lon="1.91271">
        <ele>10.711792</ele>
        <time>2012-05-20T12:38:38Z</time>
      </trkpt>
      <trkpt lat="50.41557" lon="1.91245">
        <ele>11.1925049</ele>
        <time>2012-05-20T12:39:05Z</time>
      </trkpt>
      <trkpt lat="50.41554" lon="1.91242">
        <ele>12.6343994</ele>
        <time>2012-05-20T12:39:25Z</time>
      </trkpt>
      <trkpt lat="50.41557" lon="1.91241">
        <ele>20.3249512</ele>
        <time>2012-05-20T12:40:02Z</time>
      </trkpt>
      <trkpt lat="50.4156" lon="1.91243">
        <ele>23.6895752</ele>
        <time>2012-05-20T12:40:57Z</time>
      </trkpt>
      <trkpt lat="50.41561" lon="1.91233">
        <ele>20.3249512</ele>
        <time>2012-05-20T12:41:42Z</time>
      </trkpt>
      <trkpt lat="50.41564" lon="1.91218">
        <ele>17.9217529</ele>
        <time>2012-05-20T12:42:03Z</time>
      </trkpt>
      <trkpt lat="50.41566" lon="1.91215">
        <ele>15.5184326</ele>
        <time>2012-05-20T12:42:25Z</time>
      </trkpt>
      <trkpt lat="50.41565" lon="1.9121">
        <ele>13.5958252</ele>
        <time>2012-05-20T12:42:56Z</time>
      </trkpt>
      <trkpt lat="50.41566" lon="1.91203">
        <ele>15.5184326</ele>
        <time>2012-05-20T12:43:18Z</time>
      </trkpt>
      <trkpt lat="50.41569" lon="1.9119">
        <ele>14.076416</ele>
        <time>2012-05-20T12:43:50Z</time>
      </trkpt>
      <trkpt lat="50.41566" lon="1.91182">
        <ele>13.5958252</ele>
        <time>2012-05-20T12:44:12Z</time>
      </trkpt>
      <trkpt lat="50.41564" lon="1.91182">
        <ele>15.0377197</ele>
        <time>2012-05-20T12:44:35Z</time>
      </trkpt>
      <trkpt lat="50.41564" lon="1.91187">
        <ele>16.9604492</ele>
        <time>2012-05-20T12:45:05Z</time>
      </trkpt>
      <trkpt lat="50.4157" lon="1.91184">
        <ele>17.4411621</ele>
        <time>2012-05-20T12:46:08Z</time>
      </trkpt>
      <trkpt lat="50.4157" lon="1.91178">
        <ele>13.5958252</ele>
        <time>2012-05-20T12:46:29Z</time>
      </trkpt>
      <trkpt lat="50.41574" lon="1.91158">
        <ele>12.1538086</ele>
        <time>2012-05-20T12:46:56Z</time>
      </trkpt>
      <trkpt lat="50.41576" lon="1.91147">
        <ele>12.1538086</ele>
        <time>2012-05-20T12:47:14Z</time>
      </trkpt>
      <trkpt lat="50.41574" lon="1.91146">
        <ele>10.2312012</ele>
        <time>2012-05-20T12:47:46Z</time>
      </trkpt>
      <trkpt lat="50.41571" lon="1.91142">
        <ele>5.9052734</ele>
        <time>2012-05-20T12:48:15Z</time>
      </trkpt>
      <trkpt lat="50.41576" lon="1.91147">
        <ele>16.9604492</ele>
        <time>2012-05-20T12:49:39Z</time>
      </trkpt>
      <trkpt lat="50.41583" lon="1.91147">
        <ele>18.8830566</ele>
        <time>2012-05-20T12:50:11Z</time>
      </trkpt>
      <trkpt lat="50.41585" lon="1.91149">
        <ele>20.3249512</ele>
        <time>2012-05-20T12:50:15Z</time>
      </trkpt>
      <trkpt lat="50.41593" lon="1.91157">
        <ele>19.3637695</ele>
        <time>2012-05-20T12:50:29Z</time>
      </trkpt>
      <trkpt lat="50.41593" lon="1.91146">
        <ele>16.4797363</ele>
        <time>2012-05-20T12:50:47Z</time>
      </trkpt>
      <trkpt lat="50.41596" lon="1.91131">
        <ele>15.9990234</ele>
        <time>2012-05-20T12:51:07Z</time>
      </trkpt>
      <trkpt lat="50.41604" lon="1.91115">
        <ele>14.5570068</ele>
        <time>2012-05-20T12:51:24Z</time>
      </trkpt>
      <trkpt lat="50.41603" lon="1.91113">
        <ele>10.2312012</ele>
        <time>2012-05-20T12:52:15Z</time>
      </trkpt>
      <trkpt lat="50.41602" lon="1.91103">
        <ele>12.1538086</ele>
        <time>2012-05-20T13:00:33Z</time>
      </trkpt>
      <trkpt lat="50.41601" lon="1.91104">
        <ele>14.5570068</ele>
        <time>2012-05-20T13:00:57Z</time>
      </trkpt>
      <trkpt lat="50.41601" lon="1.91095">
        <ele>10.2312012</ele>
        <time>2012-05-20T13:01:52Z</time>
      </trkpt>
      <trkpt lat="50.41614" lon="1.9105">
        <ele>10.711792</ele>
        <time>2012-05-20T13:02:14Z</time>
      </trkpt>
      <trkpt lat="50.41651" lon="1.91015">
        <ele>11.1925049</ele>
        <time>2012-05-20T13:02:34Z</time>
      </trkpt>
      <trkpt lat="50.417" lon="1.90991">
        <ele>11.6732178</ele>
        <time>2012-05-20T13:02:56Z</time>
      </trkpt>
      <trkpt lat="50.4173" lon="1.90942">
        <ele>11.1925049</ele>
        <time>2012-05-20T13:03:18Z</time>
      </trkpt>
      <trkpt lat="50.41748" lon="1.90912">
        <ele>11.1925049</ele>
        <time>2012-05-20T13:03:38Z</time>
      </trkpt>
      <trkpt lat="50.41777" lon="1.90871">
        <ele>12.1538086</ele>
        <time>2012-05-20T13:03:57Z</time>
      </trkpt>
      <trkpt lat="50.41808" lon="1.9085">
        <ele>15.5184326</ele>
        <time>2012-05-20T13:04:16Z</time>
      </trkpt>
      <trkpt lat="50.41818" lon="1.90893">
        <ele>15.5184326</ele>
        <time>2012-05-20T13:04:33Z</time>
      </trkpt>
      <trkpt lat="50.41843" lon="1.9094">
        <ele>17.9217529</ele>
        <time>2012-05-20T13:04:52Z</time>
      </trkpt>
      <trkpt lat="50.41868" lon="1.90947">
        <ele>17.9217529</ele>
        <time>2012-05-20T13:05:09Z</time>
      </trkpt>
      <trkpt lat="50.41876" lon="1.90901">
        <ele>15.5184326</ele>
        <time>2012-05-20T13:05:27Z</time>
      </trkpt>
      <trkpt lat="50.41901" lon="1.90853">
        <ele>12.6343994</ele>
        <time>2012-05-20T13:05:47Z</time>
      </trkpt>
      <trkpt lat="50.41929" lon="1.90799">
        <ele>12.1538086</ele>
        <time>2012-05-20T13:06:10Z</time>
      </trkpt>
      <trkpt lat="50.41956" lon="1.90751">
        <ele>11.1925049</ele>
        <time>2012-05-20T13:06:32Z</time>
      </trkpt>
      <trkpt lat="50.41981" lon="1.90711">
        <ele>11.6732178</ele>
        <time>2012-05-20T13:06:57Z</time>
      </trkpt>
      <trkpt lat="50.42004" lon="1.90716">
        <ele>12.6343994</ele>
        <time>2012-05-20T13:07:14Z</time>
      </trkpt>
      <trkpt lat="50.42037" lon="1.90745">
        <ele>11.1925049</ele>
        <time>2012-05-20T13:07:35Z</time>
      </trkpt>
      <trkpt lat="50.42061" lon="1.90729">
        <ele>11.1925049</ele>
        <time>2012-05-20T13:07:50Z</time>
      </trkpt>
      <trkpt lat="50.421" lon="1.9072">
        <ele>12.1538086</ele>
        <time>2012-05-20T13:08:08Z</time>
      </trkpt>
      <trkpt lat="50.42133" lon="1.90755">
        <ele>11.6732178</ele>
        <time>2012-05-20T13:08:28Z</time>
      </trkpt>
      <trkpt lat="50.42168" lon="1.90793">
        <ele>12.1538086</ele>
        <time>2012-05-20T13:08:50Z</time>
      </trkpt>
      <trkpt lat="50.42211" lon="1.90811">
        <ele>11.1925049</ele>
        <time>2012-05-20T13:09:14Z</time>
      </trkpt>
      <trkpt lat="50.4225" lon="1.90804">
        <ele>11.6732178</ele>
        <time>2012-05-20T13:09:34Z</time>
      </trkpt>
      <trkpt lat="50.42284" lon="1.90809">
        <ele>11.6732178</ele>
        <time>2012-05-20T13:09:52Z</time>
      </trkpt>
      <trkpt lat="50.4232" lon="1.90812">
        <ele>11.1925049</ele>
        <time>2012-05-20T13:10:12Z</time>
      </trkpt>
      <trkpt lat="50.42362" lon="1.90811">
        <ele>10.2312012</ele>
        <time>2012-05-20T13:10:34Z</time>
      </trkpt>
      <trkpt lat="50.4241" lon="1.90798">
        <ele>9.2698975</ele>
        <time>2012-05-20T13:10:55Z</time>
      </trkpt>
      <trkpt lat="50.42453" lon="1.90779">
        <ele>10.2312012</ele>
        <time>2012-05-20T13:11:15Z</time>
      </trkpt>
      <trkpt lat="50.4249" lon="1.90766">
        <ele>11.6732178</ele>
        <time>2012-05-20T13:11:33Z</time>
      </trkpt>
      <trkpt lat="50.42515" lon="1.90733">
        <ele>11.6732178</ele>
        <time>2012-05-20T13:11:51Z</time>
      </trkpt>
      <trkpt lat="50.42533" lon="1.90727">
        <ele>15.0377197</ele>
        <time>2012-05-20T13:12:04Z</time>
      </trkpt>
      <trkpt lat="50.42532" lon="1.90725">
        <ele>18.4023438</ele>
        <time>2012-05-20T13:12:25Z</time>
      </trkpt>
      <trkpt lat="50.42526" lon="1.90729">
        <ele>18.4023438</ele>
        <time>2012-05-20T13:12:47Z</time>
      </trkpt>
      <trkpt lat="50.42526" lon="1.90725">
        <ele>19.3637695</ele>
        <time>2012-05-20T13:13:03Z</time>
      </trkpt>
      <trkpt lat="50.42529" lon="1.90729">
        <ele>23.2089844</ele>
        <time>2012-05-20T13:13:25Z</time>
      </trkpt>
      <trkpt lat="50.42529" lon="1.90732">
        <ele>22.7282715</ele>
        <time>2012-05-20T13:13:28Z</time>
      </trkpt>
      <trkpt lat="50.42509" lon="1.9074">
        <ele>20.8056641</ele>
        <time>2012-05-20T13:13:47Z</time>
      </trkpt>
      <trkpt lat="50.42509" lon="1.9074">
        <ele>17.9217529</ele>
        <time>2012-05-20T13:14:17Z</time>
      </trkpt>
      <trkpt lat="50.42508" lon="1.90737">
        <ele>13.5958252</ele>
        <time>2012-05-20T13:14:36Z</time>
      </trkpt>
      <trkpt lat="50.42515" lon="1.90733">
        <ele>12.6343994</ele>
        <time>2012-05-20T13:14:56Z</time>
      </trkpt>
      <trkpt lat="50.4252" lon="1.9073">
        <ele>14.5570068</ele>
        <time>2012-05-20T13:15:15Z</time>
      </trkpt>
      <trkpt lat="50.42528" lon="1.9073">
        <ele>16.9604492</ele>
        <time>2012-05-20T13:15:35Z</time>
      </trkpt>
      <trkpt lat="50.42538" lon="1.90724">
        <ele>22.2475586</ele>
        <time>2012-05-20T13:16:22Z</time>
      </trkpt>
      <trkpt lat="50.42543" lon="1.90721">
        <ele>21.286377</ele>
        <time>2012-05-20T13:16:27Z</time>
      </trkpt>
      <trkpt lat="50.42561" lon="1.90739">
        <ele>18.4023438</ele>
        <time>2012-05-20T13:16:48Z</time>
      </trkpt>
      <trkpt lat="50.426" lon="1.90776">
        <ele>15.5184326</ele>
        <time>2012-05-20T13:17:06Z</time>
      </trkpt>
      <trkpt lat="50.42637" lon="1.90773">
        <ele>13.1151123</ele>
        <time>2012-05-20T13:17:24Z</time>
      </trkpt>
      <trkpt lat="50.42674" lon="1.90761">
        <ele>15.0377197</ele>
        <time>2012-05-20T13:17:43Z</time>
      </trkpt>
      <trkpt lat="50.42708" lon="1.90771">
        <ele>16.9604492</ele>
        <time>2012-05-20T13:18:02Z</time>
      </trkpt>
      <trkpt lat="50.42737" lon="1.90787">
        <ele>13.5958252</ele>
        <time>2012-05-20T13:18:22Z</time>
      </trkpt>
      <trkpt lat="50.42772" lon="1.9079">
        <ele>11.1925049</ele>
        <time>2012-05-20T13:18:45Z</time>
      </trkpt>
      <trkpt lat="50.42794" lon="1.90791">
        <ele>15.9990234</ele>
        <time>2012-05-20T13:19:04Z</time>
      </trkpt>
      <trkpt lat="50.42798" lon="1.90789">
        <ele>15.5184326</ele>
        <time>2012-05-20T13:19:08Z</time>
      </trkpt>
      <trkpt lat="50.42811" lon="1.90767">
        <ele>15.5184326</ele>
        <time>2012-05-20T13:19:29Z</time>
      </trkpt>
      <trkpt lat="50.42821" lon="1.90742">
        <ele>10.2312012</ele>
        <time>2012-05-20T13:19:50Z</time>
      </trkpt>
      <trkpt lat="50.42826" lon="1.90734">
        <ele>10.2312012</ele>
        <time>2012-05-20T13:20:08Z</time>
      </trkpt>
      <trkpt lat="50.42826" lon="1.90736">
        <ele>10.2312012</ele>
        <time>2012-05-20T13:20:30Z</time>
      </trkpt>
      <trkpt lat="50.42826" lon="1.90736">
        <ele>10.711792</ele>
        <time>2012-05-20T13:20:51Z</time>
      </trkpt>
      <trkpt lat="50.42828" lon="1.90733">
        <ele>10.2312012</ele>
        <time>2012-05-20T13:21:07Z</time>
      </trkpt>
      <trkpt lat="50.4283" lon="1.90735">
        <ele>12.1538086</ele>
        <time>2012-05-20T13:21:31Z</time>
      </trkpt>
      <trkpt lat="50.42831" lon="1.90737">
        <ele>10.2312012</ele>
        <time>2012-05-20T13:27:06Z</time>
      </trkpt>
      <trkpt lat="50.42831" lon="1.90733">
        <ele>14.076416</ele>
        <time>2012-05-20T13:36:14Z</time>
      </trkpt>
      <trkpt lat="50.4282" lon="1.90731">
        <ele>14.076416</ele>
        <time>2012-05-20T13:36:37Z</time>
      </trkpt>
      <trkpt lat="50.42827" lon="1.90703">
        <ele>12.6343994</ele>
        <time>2012-05-20T13:36:59Z</time>
      </trkpt>
      <trkpt lat="50.42856" lon="1.90674">
        <ele>11.6732178</ele>
        <time>2012-05-20T13:37:19Z</time>
      </trkpt>
      <trkpt lat="50.42881" lon="1.90628">
        <ele>10.2312012</ele>
        <time>2012-05-20T13:37:34Z</time>
      </trkpt>
      <trkpt lat="50.42879" lon="1.90562">
        <ele>7.8278809</ele>
        <time>2012-05-20T13:37:53Z</time>
      </trkpt>
      <trkpt lat="50.42876" lon="1.90484">
        <ele>7.8278809</ele>
        <time>2012-05-20T13:38:17Z</time>
      </trkpt>
      <trkpt lat="50.42877" lon="1.90409">
        <ele>6.3858643</ele>
        <time>2012-05-20T13:38:37Z</time>
      </trkpt>
      <trkpt lat="50.42892" lon="1.90325">
        <ele>7.8278809</ele>
        <time>2012-05-20T13:38:59Z</time>
      </trkpt>
      <trkpt lat="50.42904" lon="1.9025">
        <ele>6.8664551</ele>
        <time>2012-05-20T13:39:18Z</time>
      </trkpt>
      <trkpt lat="50.42911" lon="1.90154">
        <ele>5.9052734</ele>
        <time>2012-05-20T13:39:43Z</time>
      </trkpt>
      <trkpt lat="50.42911" lon="1.90074">
        <ele>4.9438477</ele>
        <time>2012-05-20T13:40:05Z</time>
      </trkpt>
      <trkpt lat="50.42883" lon="1.90001">
        <ele>5.9052734</ele>
        <time>2012-05-20T13:40:27Z</time>
      </trkpt>
      <trkpt lat="50.42883" lon="1.89951">
        <ele>6.3858643</ele>
        <time>2012-05-20T13:40:44Z</time>
      </trkpt>
      <trkpt lat="50.42874" lon="1.89871">
        <ele>7.8278809</ele>
        <time>2012-05-20T13:41:09Z</time>
      </trkpt>
      <trkpt lat="50.42865" lon="1.89779">
        <ele>7.347168</ele>
        <time>2012-05-20T13:41:37Z</time>
      </trkpt>
      <trkpt lat="50.42889" lon="1.89727">
        <ele>6.3858643</ele>
        <time>2012-05-20T13:41:59Z</time>
      </trkpt>
      <trkpt lat="50.42929" lon="1.89704">
        <ele>5.9052734</ele>
        <time>2012-05-20T13:42:19Z</time>
      </trkpt>
      <trkpt lat="50.42969" lon="1.89708">
        <ele>5.9052734</ele>
        <time>2012-05-20T13:42:39Z</time>
      </trkpt>
      <trkpt lat="50.42999" lon="1.89676">
        <ele>6.8664551</ele>
        <time>2012-05-20T13:42:59Z</time>
      </trkpt>
      <trkpt lat="50.43004" lon="1.89618">
        <ele>6.3858643</ele>
        <time>2012-05-20T13:43:19Z</time>
      </trkpt>
      <trkpt lat="50.43015" lon="1.89557">
        <ele>6.3858643</ele>
        <time>2012-05-20T13:43:41Z</time>
      </trkpt>
      <trkpt lat="50.43049" lon="1.89511">
        <ele>6.3858643</ele>
        <time>2012-05-20T13:44:05Z</time>
      </trkpt>
      <trkpt lat="50.43075" lon="1.89463">
        <ele>5.4245605</ele>
        <time>2012-05-20T13:44:27Z</time>
      </trkpt>
      <trkpt lat="50.43115" lon="1.89445">
        <ele>6.3858643</ele>
        <time>2012-05-20T13:44:52Z</time>
      </trkpt>
      <trkpt lat="50.43151" lon="1.89428">
        <ele>6.8664551</ele>
        <time>2012-05-20T13:45:14Z</time>
      </trkpt>
      <trkpt lat="50.43189" lon="1.89401">
        <ele>7.347168</ele>
        <time>2012-05-20T13:45:34Z</time>
      </trkpt>
      <trkpt lat="50.4324" lon="1.89376">
        <ele>6.8664551</ele>
        <time>2012-05-20T13:46:01Z</time>
      </trkpt>
      <trkpt lat="50.43288" lon="1.89339">
        <ele>5.4245605</ele>
        <time>2012-05-20T13:46:26Z</time>
      </trkpt>
      <trkpt lat="50.43321" lon="1.89272">
        <ele>6.3858643</ele>
        <time>2012-05-20T13:46:49Z</time>
      </trkpt>
      <trkpt lat="50.43343" lon="1.8921">
        <ele>4.9438477</ele>
        <time>2012-05-20T13:47:10Z</time>
      </trkpt>
      <trkpt lat="50.43363" lon="1.89158">
        <ele>5.4245605</ele>
        <time>2012-05-20T13:47:30Z</time>
      </trkpt>
      <trkpt lat="50.43386" lon="1.89099">
        <ele>4.4632568</ele>
        <time>2012-05-20T13:47:51Z</time>
      </trkpt>
      <trkpt lat="50.43404" lon="1.89045">
        <ele>4.9438477</ele>
        <time>2012-05-20T13:48:10Z</time>
      </trkpt>
      <trkpt lat="50.43428" lon="1.88996">
        <ele>4.9438477</ele>
        <time>2012-05-20T13:48:29Z</time>
      </trkpt>
      <trkpt lat="50.43458" lon="1.8895">
        <ele>4.9438477</ele>
        <time>2012-05-20T13:48:51Z</time>
      </trkpt>
      <trkpt lat="50.43499" lon="1.88911">
        <ele>5.4245605</ele>
        <time>2012-05-20T13:49:12Z</time>
      </trkpt>
      <trkpt lat="50.43534" lon="1.8889">
        <ele>6.8664551</ele>
        <time>2012-05-20T13:49:32Z</time>
      </trkpt>
      <trkpt lat="50.43565" lon="1.88864">
        <ele>7.8278809</ele>
        <time>2012-05-20T13:49:51Z</time>
      </trkpt>
      <trkpt lat="50.43599" lon="1.88821">
        <ele>6.3858643</ele>
        <time>2012-05-20T13:50:11Z</time>
      </trkpt>
      <trkpt lat="50.43604" lon="1.88769">
        <ele>6.3858643</ele>
        <time>2012-05-20T13:50:29Z</time>
      </trkpt>
      <trkpt lat="50.43598" lon="1.88709">
        <ele>4.9438477</ele>
        <time>2012-05-20T13:50:50Z</time>
      </trkpt>
      <trkpt lat="50.43601" lon="1.88639">
        <ele>4.4632568</ele>
        <time>2012-05-20T13:51:12Z</time>
      </trkpt>
      <trkpt lat="50.43601" lon="1.88563">
        <ele>4.4632568</ele>
        <time>2012-05-20T13:51:36Z</time>
      </trkpt>
      <trkpt lat="50.43605" lon="1.88489">
        <ele>3.0212402</ele>
        <time>2012-05-20T13:52:01Z</time>
      </trkpt>
      <trkpt lat="50.43635" lon="1.88452">
        <ele>4.4632568</ele>
        <time>2012-05-20T13:52:22Z</time>
      </trkpt>
      <trkpt lat="50.43674" lon="1.88432">
        <ele>5.4245605</ele>
        <time>2012-05-20T13:52:45Z</time>
      </trkpt>
      <trkpt lat="50.4371" lon="1.88407">
        <ele>5.9052734</ele>
        <time>2012-05-20T13:53:07Z</time>
      </trkpt>
      <trkpt lat="50.43742" lon="1.88382">
        <ele>8.3085938</ele>
        <time>2012-05-20T13:53:25Z</time>
      </trkpt>
      <trkpt lat="50.43756" lon="1.88336">
        <ele>7.8278809</ele>
        <time>2012-05-20T13:53:45Z</time>
      </trkpt>
      <trkpt lat="50.43748" lon="1.88283">
        <ele>7.8278809</ele>
        <time>2012-05-20T13:54:08Z</time>
      </trkpt>
      <trkpt lat="50.43739" lon="1.88241">
        <ele>6.8664551</ele>
        <time>2012-05-20T13:54:28Z</time>
      </trkpt>
      <trkpt lat="50.4375" lon="1.88185">
        <ele>5.9052734</ele>
        <time>2012-05-20T13:54:48Z</time>
      </trkpt>
      <trkpt lat="50.43779" lon="1.88157">
        <ele>5.9052734</ele>
        <time>2012-05-20T13:55:06Z</time>
      </trkpt>
      <trkpt lat="50.43803" lon="1.88091">
        <ele>4.9438477</ele>
        <time>2012-05-20T13:55:31Z</time>
      </trkpt>
      <trkpt lat="50.43812" lon="1.88052">
        <ele>5.4245605</ele>
        <time>2012-05-20T13:55:56Z</time>
      </trkpt>
      <trkpt lat="50.43818" lon="1.88023">
        <ele>5.9052734</ele>
        <time>2012-05-20T13:56:30Z</time>
      </trkpt>
      <trkpt lat="50.43819" lon="1.88017">
        <ele>6.8664551</ele>
        <time>2012-05-20T13:56:58Z</time>
      </trkpt>
      <trkpt lat="50.43815" lon="1.88038">
        <ele>6.3858643</ele>
        <time>2012-05-20T13:57:23Z</time>
      </trkpt>
      <trkpt lat="50.43817" lon="1.88024">
        <ele>5.9052734</ele>
        <time>2012-05-20T13:57:49Z</time>
      </trkpt>
      <trkpt lat="50.43831" lon="1.87987">
        <ele>5.4245605</ele>
        <time>2012-05-20T13:58:17Z</time>
      </trkpt>
      <trkpt lat="50.43857" lon="1.87939">
        <ele>4.4632568</ele>
        <time>2012-05-20T13:58:37Z</time>
      </trkpt>
      <trkpt lat="50.43889" lon="1.87864">
        <ele>5.9052734</ele>
        <time>2012-05-20T13:59:03Z</time>
      </trkpt>
      <trkpt lat="50.4392" lon="1.87791">
        <ele>4.9438477</ele>
        <time>2012-05-20T13:59:28Z</time>
      </trkpt>
      <trkpt lat="50.43946" lon="1.87742">
        <ele>4.4632568</ele>
        <time>2012-05-20T13:59:46Z</time>
      </trkpt>
      <trkpt lat="50.43959" lon="1.87686">
        <ele>5.4245605</ele>
        <time>2012-05-20T14:00:05Z</time>
      </trkpt>
      <trkpt lat="50.43963" lon="1.87646">
        <ele>5.9052734</ele>
        <time>2012-05-20T14:00:20Z</time>
      </trkpt>
      <trkpt lat="50.43975" lon="1.87586">
        <ele>7.8278809</ele>
        <time>2012-05-20T14:00:39Z</time>
      </trkpt>
      <trkpt lat="50.44" lon="1.87533">
        <ele>5.9052734</ele>
        <time>2012-05-20T14:00:59Z</time>
      </trkpt>
      <trkpt lat="50.44021" lon="1.87494">
        <ele>6.3858643</ele>
        <time>2012-05-20T14:01:24Z</time>
      </trkpt>
      <trkpt lat="50.44036" lon="1.87455">
        <ele>7.347168</ele>
        <time>2012-05-20T14:01:57Z</time>
      </trkpt>
      <trkpt lat="50.44048" lon="1.87415">
        <ele>8.3085938</ele>
        <time>2012-05-20T14:02:27Z</time>
      </trkpt>
      <trkpt lat="50.44056" lon="1.87391">
        <ele>8.7891846</ele>
        <time>2012-05-20T14:02:53Z</time>
      </trkpt>
      <trkpt lat="50.44072" lon="1.87351">
        <ele>8.3085938</ele>
        <time>2012-05-20T14:03:12Z</time>
      </trkpt>
      <trkpt lat="50.44085" lon="1.87279">
        <ele>4.4632568</ele>
        <time>2012-05-20T14:03:36Z</time>
      </trkpt>
      <trkpt lat="50.44082" lon="1.87225">
        <ele>3.5019531</ele>
        <time>2012-05-20T14:03:54Z</time>
      </trkpt>
      <trkpt lat="50.44086" lon="1.87159">
        <ele>4.9438477</ele>
        <time>2012-05-20T14:04:16Z</time>
      </trkpt>
      <trkpt lat="50.44112" lon="1.87116">
        <ele>5.9052734</ele>
        <time>2012-05-20T14:04:36Z</time>
      </trkpt>
      <trkpt lat="50.44145" lon="1.87065">
        <ele>5.4245605</ele>
        <time>2012-05-20T14:05:00Z</time>
      </trkpt>
      <trkpt lat="50.44158" lon="1.86988">
        <ele>3.0212402</ele>
        <time>2012-05-20T14:05:25Z</time>
      </trkpt>
      <trkpt lat="50.44158" lon="1.86904">
        <ele>3.5019531</ele>
        <time>2012-05-20T14:05:51Z</time>
      </trkpt>
      <trkpt lat="50.44135" lon="1.86865">
        <ele>4.4632568</ele>
        <time>2012-05-20T14:06:10Z</time>
      </trkpt>
      <trkpt lat="50.44125" lon="1.86794">
        <ele>5.4245605</ele>
        <time>2012-05-20T14:06:34Z</time>
      </trkpt>
      <trkpt lat="50.44111" lon="1.86736">
        <ele>5.9052734</ele>
        <time>2012-05-20T14:06:54Z</time>
      </trkpt>
      <trkpt lat="50.44092" lon="1.86668">
        <ele>6.8664551</ele>
        <time>2012-05-20T14:07:17Z</time>
      </trkpt>
      <trkpt lat="50.44084" lon="1.86607">
        <ele>5.9052734</ele>
        <time>2012-05-20T14:07:37Z</time>
      </trkpt>
      <trkpt lat="50.44091" lon="1.86557">
        <ele>8.3085938</ele>
        <time>2012-05-20T14:07:56Z</time>
      </trkpt>
      <trkpt lat="50.44115" lon="1.86535">
        <ele>8.3085938</ele>
        <time>2012-05-20T14:08:16Z</time>
      </trkpt>
      <trkpt lat="50.44144" lon="1.86503">
        <ele>9.2698975</ele>
        <time>2012-05-20T14:08:38Z</time>
      </trkpt>
      <trkpt lat="50.44159" lon="1.86466">
        <ele>8.3085938</ele>
        <time>2012-05-20T14:08:59Z</time>
      </trkpt>
      <trkpt lat="50.44146" lon="1.86419">
        <ele>9.2698975</ele>
        <time>2012-05-20T14:09:20Z</time>
      </trkpt>
      <trkpt lat="50.44146" lon="1.86374">
        <ele>8.7891846</ele>
        <time>2012-05-20T14:09:39Z</time>
      </trkpt>
      <trkpt lat="50.44164" lon="1.8635">
        <ele>13.5958252</ele>
        <time>2012-05-20T14:09:55Z</time>
      </trkpt>
      <trkpt lat="50.44195" lon="1.86315">
        <ele>11.1925049</ele>
        <time>2012-05-20T14:10:18Z</time>
      </trkpt>
      <trkpt lat="50.4423" lon="1.86264">
        <ele>8.3085938</ele>
        <time>2012-05-20T14:10:43Z</time>
      </trkpt>
      <trkpt lat="50.44254" lon="1.86218">
        <ele>7.8278809</ele>
        <time>2012-05-20T14:11:04Z</time>
      </trkpt>
      <trkpt lat="50.44288" lon="1.86184">
        <ele>6.8664551</ele>
        <time>2012-05-20T14:11:26Z</time>
      </trkpt>
      <trkpt lat="50.44323" lon="1.86139">
        <ele>6.3858643</ele>
        <time>2012-05-20T14:11:52Z</time>
      </trkpt>
      <trkpt lat="50.44323" lon="1.86085">
        <ele>9.7506104</ele>
        <time>2012-05-20T14:12:11Z</time>
      </trkpt>
      <trkpt lat="50.44322" lon="1.86028">
        <ele>13.1151123</ele>
        <time>2012-05-20T14:12:31Z</time>
      </trkpt>
      <trkpt lat="50.44335" lon="1.85991">
        <ele>13.1151123</ele>
        <time>2012-05-20T14:12:49Z</time>
      </trkpt>
      <trkpt lat="50.44361" lon="1.85962">
        <ele>12.1538086</ele>
        <time>2012-05-20T14:13:09Z</time>
      </trkpt>
      <trkpt lat="50.44397" lon="1.85928">
        <ele>10.711792</ele>
        <time>2012-05-20T14:13:32Z</time>
      </trkpt>
      <trkpt lat="50.44438" lon="1.85907">
        <ele>11.1925049</ele>
        <time>2012-05-20T14:13:56Z</time>
      </trkpt>
      <trkpt lat="50.44468" lon="1.85913">
        <ele>14.076416</ele>
        <time>2012-05-20T14:14:17Z</time>
      </trkpt>
      <trkpt lat="50.44487" lon="1.85937">
        <ele>15.9990234</ele>
        <time>2012-05-20T14:14:38Z</time>
      </trkpt>
      <trkpt lat="50.445" lon="1.85951">
        <ele>13.1151123</ele>
        <time>2012-05-20T14:14:54Z</time>
      </trkpt>
      <trkpt lat="50.44509" lon="1.85952">
        <ele>13.5958252</ele>
        <time>2012-05-20T14:15:14Z</time>
      </trkpt>
      <trkpt lat="50.44509" lon="1.85954">
        <ele>20.8056641</ele>
        <time>2012-05-20T14:15:55Z</time>
      </trkpt>
      <trkpt lat="50.44514" lon="1.85956">
        <ele>24.1702881</ele>
        <time>2012-05-20T14:16:16Z</time>
      </trkpt>
      <trkpt lat="50.44518" lon="1.85955">
        <ele>19.8443604</ele>
        <time>2012-05-20T14:17:16Z</time>
      </trkpt>
      <trkpt lat="50.44525" lon="1.85955">
        <ele>13.1151123</ele>
        <time>2012-05-20T14:18:30Z</time>
      </trkpt>
      <trkpt lat="50.4453" lon="1.85952">
        <ele>12.1538086</ele>
        <time>2012-05-20T14:19:05Z</time>
      </trkpt>
      <trkpt lat="50.44528" lon="1.85952">
        <ele>4.9438477</ele>
        <time>2012-05-20T14:19:57Z</time>
      </trkpt>
      <trkpt lat="50.44529" lon="1.85953">
        <ele>10.2312012</ele>
        <time>2012-05-20T14:20:38Z</time>
      </trkpt>
      <trkpt lat="50.44529" lon="1.85957">
        <ele>18.8830566</ele>
        <time>2012-05-20T14:20:59Z</time>
      </trkpt>
      <trkpt lat="50.44548" lon="1.85939">
        <ele>18.8830566</ele>
        <time>2012-05-20T14:21:54Z</time>
      </trkpt>
      <trkpt lat="50.44555" lon="1.85918">
        <ele>13.5958252</ele>
        <time>2012-05-20T14:22:20Z</time>
      </trkpt>
      <trkpt lat="50.4456" lon="1.85903">
        <ele>17.9217529</ele>
        <time>2012-05-20T14:23:29Z</time>
      </trkpt>
      <trkpt lat="50.44563" lon="1.85903">
        <ele>19.3637695</ele>
        <time>2012-05-20T14:24:10Z</time>
      </trkpt>
      <trkpt lat="50.44564" lon="1.85893">
        <ele>18.8830566</ele>
        <time>2012-05-20T14:24:31Z</time>
      </trkpt>
      <trkpt lat="50.44564" lon="1.85885">
        <ele>19.3637695</ele>
        <time>2012-05-20T14:24:48Z</time>
      </trkpt>
      <trkpt lat="50.44567" lon="1.8588">
        <ele>23.6895752</ele>
        <time>2012-05-20T14:26:43Z</time>
      </trkpt>
      <trkpt lat="50.44562" lon="1.85838">
        <ele>23.2089844</ele>
        <time>2012-05-20T14:26:51Z</time>
      </trkpt>
      <trkpt lat="50.44567" lon="1.8587">
        <ele>24.1702881</ele>
        <time>2012-05-20T14:31:35Z</time>
      </trkpt>
      <trkpt lat="50.44572" lon="1.85868">
        <ele>11.1925049</ele>
        <time>2012-05-20T14:36:12Z</time>
      </trkpt>
      <trkpt lat="50.44578" lon="1.85863">
        <ele>11.1925049</ele>
        <time>2012-05-20T14:36:54Z</time>
      </trkpt>
      <trkpt lat="50.44582" lon="1.85873">
        <ele>9.7506104</ele>
        <time>2012-05-20T14:37:45Z</time>
      </trkpt>
      <trkpt lat="50.44591" lon="1.85867">
        <ele>10.711792</ele>
        <time>2012-05-20T14:38:08Z</time>
      </trkpt>
      <trkpt lat="50.44592" lon="1.85863">
        <ele>11.1925049</ele>
        <time>2012-05-20T14:38:13Z</time>
      </trkpt>
      <trkpt lat="50.44605" lon="1.85853">
        <ele>8.7891846</ele>
        <time>2012-05-20T14:38:32Z</time>
      </trkpt>
      <trkpt lat="50.44603" lon="1.85859">
        <ele>7.347168</ele>
        <time>2012-05-20T14:39:33Z</time>
      </trkpt>
      <trkpt lat="50.44604" lon="1.85858">
        <ele>8.3085938</ele>
        <time>2012-05-20T14:40:49Z</time>
      </trkpt>
      <trkpt lat="50.44598" lon="1.85862">
        <ele>9.2698975</ele>
        <time>2012-05-20T14:41:09Z</time>
      </trkpt>
      <trkpt lat="50.44602" lon="1.8585">
        <ele>9.2698975</ele>
        <time>2012-05-20T14:41:20Z</time>
      </trkpt>
      <trkpt lat="50.44606" lon="1.85843">
        <ele>8.7891846</ele>
        <time>2012-05-20T14:41:24Z</time>
      </trkpt>
      <trkpt lat="50.4464" lon="1.85811">
        <ele>9.2698975</ele>
        <time>2012-05-20T14:41:47Z</time>
      </trkpt>
      <trkpt lat="50.44669" lon="1.8577">
        <ele>9.7506104</ele>
        <time>2012-05-20T14:42:08Z</time>
      </trkpt>
      <trkpt lat="50.44693" lon="1.85715">
        <ele>10.2312012</ele>
        <time>2012-05-20T14:42:29Z</time>
      </trkpt>
      <trkpt lat="50.44721" lon="1.85669">
        <ele>9.7506104</ele>
        <time>2012-05-20T14:42:51Z</time>
      </trkpt>
      <trkpt lat="50.44734" lon="1.85609">
        <ele>10.2312012</ele>
        <time>2012-05-20T14:43:11Z</time>
      </trkpt>
      <trkpt lat="50.44739" lon="1.85547">
        <ele>10.2312012</ele>
        <time>2012-05-20T14:43:31Z</time>
      </trkpt>
      <trkpt lat="50.44739" lon="1.85482">
        <ele>10.2312012</ele>
        <time>2012-05-20T14:43:52Z</time>
      </trkpt>
      <trkpt lat="50.44743" lon="1.85413">
        <ele>10.711792</ele>
        <time>2012-05-20T14:44:12Z</time>
      </trkpt>
      <trkpt lat="50.44742" lon="1.85337">
        <ele>10.2312012</ele>
        <time>2012-05-20T14:44:35Z</time>
      </trkpt>
      <trkpt lat="50.44734" lon="1.85274">
        <ele>10.2312012</ele>
        <time>2012-05-20T14:44:57Z</time>
      </trkpt>
      <trkpt lat="50.4471" lon="1.85242">
        <ele>11.1925049</ele>
        <time>2012-05-20T14:45:15Z</time>
      </trkpt>
      <trkpt lat="50.44697" lon="1.85195">
        <ele>10.2312012</ele>
        <time>2012-05-20T14:45:34Z</time>
      </trkpt>
      <trkpt lat="50.44697" lon="1.85134">
        <ele>8.3085938</ele>
        <time>2012-05-20T14:45:57Z</time>
      </trkpt>
      <trkpt lat="50.44713" lon="1.85091">
        <ele>8.7891846</ele>
        <time>2012-05-20T14:46:15Z</time>
      </trkpt>
      <trkpt lat="50.44742" lon="1.85053">
        <ele>10.711792</ele>
        <time>2012-05-20T14:46:35Z</time>
      </trkpt>
      <trkpt lat="50.44776" lon="1.85035">
        <ele>9.2698975</ele>
        <time>2012-05-20T14:46:58Z</time>
      </trkpt>
      <trkpt lat="50.44823" lon="1.85024">
        <ele>7.8278809</ele>
        <time>2012-05-20T14:47:23Z</time>
      </trkpt>
      <trkpt lat="50.44857" lon="1.85012">
        <ele>8.3085938</ele>
        <time>2012-05-20T14:47:44Z</time>
      </trkpt>
      <trkpt lat="50.44869" lon="1.84964">
        <ele>8.3085938</ele>
        <time>2012-05-20T14:48:04Z</time>
      </trkpt>
      <trkpt lat="50.44872" lon="1.84892">
        <ele>8.3085938</ele>
        <time>2012-05-20T14:48:26Z</time>
      </trkpt>
      <trkpt lat="50.44875" lon="1.84823">
        <ele>7.347168</ele>
        <time>2012-05-20T14:48:51Z</time>
      </trkpt>
      <trkpt lat="50.4486" lon="1.84751">
        <ele>6.3858643</ele>
        <time>2012-05-20T14:49:15Z</time>
      </trkpt>
      <trkpt lat="50.44836" lon="1.84696">
        <ele>5.4245605</ele>
        <time>2012-05-20T14:49:38Z</time>
      </trkpt>
      <trkpt lat="50.44801" lon="1.84654">
        <ele>4.9438477</ele>
        <time>2012-05-20T14:50:01Z</time>
      </trkpt>
      <trkpt lat="50.44766" lon="1.84607">
        <ele>4.9438477</ele>
        <time>2012-05-20T14:50:25Z</time>
      </trkpt>
      <trkpt lat="50.44738" lon="1.84572">
        <ele>4.9438477</ele>
        <time>2012-05-20T14:50:46Z</time>
      </trkpt>
      <trkpt lat="50.44728" lon="1.84514">
        <ele>5.4245605</ele>
        <time>2012-05-20T14:51:06Z</time>
      </trkpt>
      <trkpt lat="50.44734" lon="1.84467">
        <ele>5.4245605</ele>
        <time>2012-05-20T14:51:24Z</time>
      </trkpt>
      <trkpt lat="50.44765" lon="1.84427">
        <ele>6.3858643</ele>
        <time>2012-05-20T14:51:45Z</time>
      </trkpt>
      <trkpt lat="50.44797" lon="1.84377">
        <ele>6.3858643</ele>
        <time>2012-05-20T14:52:07Z</time>
      </trkpt>
      <trkpt lat="50.44818" lon="1.8431">
        <ele>6.8664551</ele>
        <time>2012-05-20T14:52:32Z</time>
      </trkpt>
      <trkpt lat="50.44835" lon="1.84238">
        <ele>5.4245605</ele>
        <time>2012-05-20T14:52:56Z</time>
      </trkpt>
      <trkpt lat="50.44843" lon="1.84163">
        <ele>4.9438477</ele>
        <time>2012-05-20T14:53:21Z</time>
      </trkpt>
      <trkpt lat="50.44825" lon="1.84112">
        <ele>4.9438477</ele>
        <time>2012-05-20T14:53:43Z</time>
      </trkpt>
      <trkpt lat="50.44791" lon="1.84058">
        <ele>4.4632568</ele>
        <time>2012-05-20T14:54:13Z</time>
      </trkpt>
      <trkpt lat="50.44782" lon="1.8405">
        <ele>5.9052734</ele>
        <time>2012-05-20T14:54:45Z</time>
      </trkpt>
      <trkpt lat="50.44788" lon="1.8405">
        <ele>6.3858643</ele>
        <time>2012-05-20T14:55:03Z</time>
      </trkpt>
      <trkpt lat="50.44802" lon="1.8407">
        <ele>7.347168</ele>
        <time>2012-05-20T14:55:32Z</time>
      </trkpt>
      <trkpt lat="50.44801" lon="1.8406">
        <ele>7.8278809</ele>
        <time>2012-05-20T14:56:28Z</time>
      </trkpt>
      <trkpt lat="50.44791" lon="1.84058">
        <ele>6.3858643</ele>
        <time>2012-05-20T14:58:49Z</time>
      </trkpt>
      <trkpt lat="50.44771" lon="1.84013">
        <ele>5.4245605</ele>
        <time>2012-05-20T14:59:11Z</time>
      </trkpt>
      <trkpt lat="50.44754" lon="1.83934">
        <ele>4.9438477</ele>
        <time>2012-05-20T14:59:39Z</time>
      </trkpt>
      <trkpt lat="50.44745" lon="1.83883">
        <ele>4.4632568</ele>
        <time>2012-05-20T15:00:07Z</time>
      </trkpt>
      <trkpt lat="50.44736" lon="1.83825">
        <ele>5.4245605</ele>
        <time>2012-05-20T15:00:41Z</time>
      </trkpt>
      <trkpt lat="50.44726" lon="1.83746">
        <ele>6.8664551</ele>
        <time>2012-05-20T15:01:29Z</time>
      </trkpt>
      <trkpt lat="50.44722" lon="1.83681">
        <ele>5.9052734</ele>
        <time>2012-05-20T15:02:02Z</time>
      </trkpt>
      <trkpt lat="50.44721" lon="1.83613">
        <ele>5.9052734</ele>
        <time>2012-05-20T15:02:30Z</time>
      </trkpt>
      <trkpt lat="50.44739" lon="1.83554">
        <ele>4.9438477</ele>
        <time>2012-05-20T15:02:59Z</time>
      </trkpt>
      <trkpt lat="50.44762" lon="1.83496">
        <ele>4.4632568</ele>
        <time>2012-05-20T15:03:27Z</time>
      </trkpt>
      <trkpt lat="50.44778" lon="1.83458">
        <ele>4.4632568</ele>
        <time>2012-05-20T15:03:56Z</time>
      </trkpt>
      <trkpt lat="50.44791" lon="1.83436">
        <ele>4.9438477</ele>
        <time>2012-05-20T15:04:21Z</time>
      </trkpt>
      <trkpt lat="50.44806" lon="1.83421">
        <ele>4.9438477</ele>
        <time>2012-05-20T15:04:53Z</time>
      </trkpt>
      <trkpt lat="50.44802" lon="1.83419">
        <ele>4.9438477</ele>
        <time>2012-05-20T15:05:15Z</time>
      </trkpt>
      <trkpt lat="50.44793" lon="1.83431">
        <ele>3.982666</ele>
        <time>2012-05-20T15:05:40Z</time>
      </trkpt>
      <trkpt lat="50.44788" lon="1.83438">
        <ele>3.0212402</ele>
        <time>2012-05-20T15:05:48Z</time>
      </trkpt>
      <trkpt lat="50.44777" lon="1.83462">
        <ele>3.982666</ele>
        <time>2012-05-20T15:06:16Z</time>
      </trkpt>
      <trkpt lat="50.44766" lon="1.8348">
        <ele>4.4632568</ele>
        <time>2012-05-20T15:06:40Z</time>
      </trkpt>
      <trkpt lat="50.44751" lon="1.83513">
        <ele>3.5019531</ele>
        <time>2012-05-20T15:07:04Z</time>
      </trkpt>
      <trkpt lat="50.4474" lon="1.8354">
        <ele>3.5019531</ele>
        <time>2012-05-20T15:07:30Z</time>
      </trkpt>
      <trkpt lat="50.44741" lon="1.83542">
        <ele>4.4632568</ele>
        <time>2012-05-20T15:08:16Z</time>
      </trkpt>
      <trkpt lat="50.44741" lon="1.8354">
        <ele>4.4632568</ele>
        <time>2012-05-20T15:08:33Z</time>
      </trkpt>
      <trkpt lat="50.44739" lon="1.8354">
        <ele>4.4632568</ele>
        <time>2012-05-20T15:08:57Z</time>
      </trkpt>
      <trkpt lat="50.44733" lon="1.83539">
        <ele>7.8278809</ele>
        <time>2012-05-20T15:09:45Z</time>
      </trkpt>
      <trkpt lat="50.44732" lon="1.8353">
        <ele>7.347168</ele>
        <time>2012-05-20T15:09:54Z</time>
      </trkpt>
      <trkpt lat="50.44733" lon="1.83518">
        <ele>6.8664551</ele>
        <time>2012-05-20T15:10:01Z</time>
      </trkpt>
      <trkpt lat="50.44731" lon="1.83507">
        <ele>4.9438477</ele>
        <time>2012-05-20T15:10:24Z</time>
      </trkpt>
      <trkpt lat="50.44728" lon="1.8348">
        <ele>5.4245605</ele>
        <time>2012-05-20T15:10:48Z</time>
      </trkpt>
      <trkpt lat="50.4472" lon="1.83428">
        <ele>6.3858643</ele>
        <time>2012-05-20T15:11:16Z</time>
      </trkpt>
      <trkpt lat="50.44716" lon="1.83407">
        <ele>6.3858643</ele>
        <time>2012-05-20T15:11:28Z</time>
      </trkpt>
      <trkpt lat="50.4474" lon="1.83392">
        <ele>5.4245605</ele>
        <time>2012-05-20T15:11:50Z</time>
      </trkpt>
      <trkpt lat="50.44753" lon="1.8338">
        <ele>5.4245605</ele>
        <time>2012-05-20T15:12:04Z</time>
      </trkpt>
      <trkpt lat="50.44759" lon="1.83381">
        <ele>5.9052734</ele>
        <time>2012-05-20T15:12:26Z</time>
      </trkpt>
      <trkpt lat="50.4477" lon="1.83382">
        <ele>4.9438477</ele>
        <time>2012-05-20T15:13:04Z</time>
      </trkpt>
      <trkpt lat="50.44772" lon="1.83379">
        <ele>4.9438477</ele>
        <time>2012-05-20T15:14:05Z</time>
      </trkpt>
      <trkpt lat="50.44773" lon="1.83378">
        <ele>9.2698975</ele>
        <time>2012-05-20T15:14:50Z</time>
      </trkpt>
      <trkpt lat="50.4478" lon="1.83359">
        <ele>7.347168</ele>
        <time>2012-05-20T15:15:08Z</time>
      </trkpt>
      <trkpt lat="50.44781" lon="1.83351">
        <ele>8.3085938</ele>
        <time>2012-05-20T15:15:13Z</time>
      </trkpt>
      <trkpt lat="50.44797" lon="1.83323">
        <ele>4.9438477</ele>
        <time>2012-05-20T15:15:34Z</time>
      </trkpt>
      <trkpt lat="50.44846" lon="1.83261">
        <ele>3.0212402</ele>
        <time>2012-05-20T15:16:22Z</time>
      </trkpt>
      <trkpt lat="50.44851" lon="1.83195">
        <ele>3.982666</ele>
        <time>2012-05-20T15:16:42Z</time>
      </trkpt>
      <trkpt lat="50.44837" lon="1.83124">
        <ele>2.0600586</ele>
        <time>2012-05-20T15:17:03Z</time>
      </trkpt>
      <trkpt lat="50.44802" lon="1.83057">
        <ele>0.618042</ele>
        <time>2012-05-20T15:17:26Z</time>
      </trkpt>
      <trkpt lat="50.44796" lon="1.83014">
        <ele>2.5406494</ele>
        <time>2012-05-20T15:17:38Z</time>
      </trkpt>
      <trkpt lat="50.44801" lon="1.82965">
        <ele>2.5406494</ele>
        <time>2012-05-20T15:17:56Z</time>
      </trkpt>
      <trkpt lat="50.44812" lon="1.82898">
        <ele>2.0600586</ele>
        <time>2012-05-20T15:18:15Z</time>
      </trkpt>
      <trkpt lat="50.44838" lon="1.82828">
        <ele>2.0600586</ele>
        <time>2012-05-20T15:18:37Z</time>
      </trkpt>
      <trkpt lat="50.44851" lon="1.82796">
        <ele>2.0600586</ele>
        <time>2012-05-20T15:18:55Z</time>
      </trkpt>
      <trkpt lat="50.44853" lon="1.8279">
        <ele>5.4245605</ele>
        <time>2012-05-20T15:19:14Z</time>
      </trkpt>
      <trkpt lat="50.4485" lon="1.82801">
        <ele>5.4245605</ele>
        <time>2012-05-20T15:19:24Z</time>
      </trkpt>
      <trkpt lat="50.44843" lon="1.82805">
        <ele>6.3858643</ele>
        <time>2012-05-20T15:19:43Z</time>
      </trkpt>
      <trkpt lat="50.44842" lon="1.82811">
        <ele>7.347168</ele>
        <time>2012-05-20T15:20:05Z</time>
      </trkpt>
      <trkpt lat="50.44848" lon="1.82799">
        <ele>9.2698975</ele>
        <time>2012-05-20T15:20:26Z</time>
      </trkpt>
      <trkpt lat="50.44853" lon="1.82778">
        <ele>9.2698975</ele>
        <time>2012-05-20T15:20:56Z</time>
      </trkpt>
      <trkpt lat="50.44855" lon="1.82757">
        <ele>6.3858643</ele>
        <time>2012-05-20T15:21:18Z</time>
      </trkpt>
      <trkpt lat="50.44855" lon="1.82756">
        <ele>6.3858643</ele>
        <time>2012-05-20T15:21:19Z</time>
      </trkpt>
      <trkpt lat="50.44857" lon="1.82707">
        <ele>5.9052734</ele>
        <time>2012-05-20T15:21:41Z</time>
      </trkpt>
      <trkpt lat="50.44837" lon="1.82644">
        <ele>3.0212402</ele>
        <time>2012-05-20T15:22:01Z</time>
      </trkpt>
      <trkpt lat="50.44818" lon="1.82585">
        <ele>1.0986328</ele>
        <time>2012-05-20T15:22:19Z</time>
      </trkpt>
      <trkpt lat="50.44811" lon="1.8252">
        <ele>0.618042</ele>
        <time>2012-05-20T15:22:38Z</time>
      </trkpt>
      <trkpt lat="50.44806" lon="1.82445">
        <ele>1.5793457</ele>
        <time>2012-05-20T15:23:00Z</time>
      </trkpt>
      <trkpt lat="50.44801" lon="1.82373">
        <ele>0.1374512</ele>
        <time>2012-05-20T15:23:21Z</time>
      </trkpt>
      <trkpt lat="50.44806" lon="1.82309">
        <ele>0.618042</ele>
        <time>2012-05-20T15:23:41Z</time>
      </trkpt>
      <trkpt lat="50.44832" lon="1.82256">
        <ele>0.618042</ele>
        <time>2012-05-20T15:24:00Z</time>
      </trkpt>
      <trkpt lat="50.44854" lon="1.82199">
        <ele>0.1374512</ele>
        <time>2012-05-20T15:24:24Z</time>
      </trkpt>
      <trkpt lat="50.44846" lon="1.82133">
        <ele>1.0986328</ele>
        <time>2012-05-20T15:24:47Z</time>
      </trkpt>
      <trkpt lat="50.44868" lon="1.82081">
        <ele>-0.3433838</ele>
        <time>2012-05-20T15:25:04Z</time>
      </trkpt>
      <trkpt lat="50.44895" lon="1.82017">
        <ele>0.1374512</ele>
        <time>2012-05-20T15:25:25Z</time>
      </trkpt>
      <trkpt lat="50.44929" lon="1.81979">
        <ele>0.1374512</ele>
        <time>2012-05-20T15:25:45Z</time>
      </trkpt>
      <trkpt lat="50.44973" lon="1.81958">
        <ele>0.618042</ele>
        <time>2012-05-20T15:26:09Z</time>
      </trkpt>
      <trkpt lat="50.45011" lon="1.81958">
        <ele>0.618042</ele>
        <time>2012-05-20T15:26:28Z</time>
      </trkpt>
      <trkpt lat="50.4505" lon="1.81934">
        <ele>0.1374512</ele>
        <time>2012-05-20T15:26:49Z</time>
      </trkpt>
      <trkpt lat="50.45094" lon="1.81899">
        <ele>1.5793457</ele>
        <time>2012-05-20T15:27:12Z</time>
      </trkpt>
      <trkpt lat="50.45126" lon="1.8187">
        <ele>2.0600586</ele>
        <time>2012-05-20T15:27:31Z</time>
      </trkpt>
      <trkpt lat="50.45162" lon="1.81859">
        <ele>2.0600586</ele>
        <time>2012-05-20T15:27:50Z</time>
      </trkpt>
      <trkpt lat="50.45188" lon="1.81908">
        <ele>1.0986328</ele>
        <time>2012-05-20T15:28:13Z</time>
      </trkpt>
      <trkpt lat="50.45203" lon="1.81948">
        <ele>3.5019531</ele>
        <time>2012-05-20T15:28:29Z</time>
      </trkpt>
      <trkpt lat="50.45231" lon="1.81985">
        <ele>1.0986328</ele>
        <time>2012-05-20T15:28:49Z</time>
      </trkpt>
      <trkpt lat="50.45263" lon="1.82009">
        <ele>-0.3433838</ele>
        <time>2012-05-20T15:29:09Z</time>
      </trkpt>
      <trkpt lat="50.45307" lon="1.82041">
        <ele>-0.3433838</ele>
        <time>2012-05-20T15:29:31Z</time>
      </trkpt>
      <trkpt lat="50.45349" lon="1.82018">
        <ele>1.0986328</ele>
        <time>2012-05-20T15:29:52Z</time>
      </trkpt>
      <trkpt lat="50.45392" lon="1.81966">
        <ele>0.618042</ele>
        <time>2012-05-20T15:30:16Z</time>
      </trkpt>
      <trkpt lat="50.45415" lon="1.8192">
        <ele>1.5793457</ele>
        <time>2012-05-20T15:30:35Z</time>
      </trkpt>
      <trkpt lat="50.4543" lon="1.81862">
        <ele>1.0986328</ele>
        <time>2012-05-20T15:30:57Z</time>
      </trkpt>
      <trkpt lat="50.45437" lon="1.81788">
        <ele>2.0600586</ele>
        <time>2012-05-20T15:31:22Z</time>
      </trkpt>
      <trkpt lat="50.45454" lon="1.8173">
        <ele>0.618042</ele>
        <time>2012-05-20T15:31:43Z</time>
      </trkpt>
      <trkpt lat="50.45481" lon="1.81711">
        <ele>0.618042</ele>
        <time>2012-05-20T15:32:01Z</time>
      </trkpt>
      <trkpt lat="50.45549" lon="1.81684">
        <ele>3.0212402</ele>
        <time>2012-05-20T15:32:44Z</time>
      </trkpt>
      <trkpt lat="50.45587" lon="1.8165">
        <ele>3.982666</ele>
        <time>2012-05-20T15:33:05Z</time>
      </trkpt>
      <trkpt lat="50.45597" lon="1.81585">
        <ele>3.982666</ele>
        <time>2012-05-20T15:33:26Z</time>
      </trkpt>
      <trkpt lat="50.4559" lon="1.81518">
        <ele>3.0212402</ele>
        <time>2012-05-20T15:33:47Z</time>
      </trkpt>
      <trkpt lat="50.45582" lon="1.8145">
        <ele>2.0600586</ele>
        <time>2012-05-20T15:34:10Z</time>
      </trkpt>
      <trkpt lat="50.45579" lon="1.81379">
        <ele>0.1374512</ele>
        <time>2012-05-20T15:34:34Z</time>
      </trkpt>
      <trkpt lat="50.45589" lon="1.81328">
        <ele>-0.3433838</ele>
        <time>2012-05-20T15:34:53Z</time>
      </trkpt>
      <trkpt lat="50.45617" lon="1.81288">
        <ele>1.5793457</ele>
        <time>2012-05-20T15:35:13Z</time>
      </trkpt>
      <trkpt lat="50.4563" lon="1.81247">
        <ele>2.0600586</ele>
        <time>2012-05-20T15:35:30Z</time>
      </trkpt>
      <trkpt lat="50.4566" lon="1.81211">
        <ele>3.0212402</ele>
        <time>2012-05-20T15:35:51Z</time>
      </trkpt>
      <trkpt lat="50.45696" lon="1.81179">
        <ele>4.4632568</ele>
        <time>2012-05-20T15:36:11Z</time>
      </trkpt>
      <trkpt lat="50.4575" lon="1.81145">
        <ele>2.0600586</ele>
        <time>2012-05-20T15:36:38Z</time>
      </trkpt>
      <trkpt lat="50.45835" lon="1.81051">
        <ele>2.0600586</ele>
        <time>2012-05-20T15:37:30Z</time>
      </trkpt>
      <trkpt lat="50.45833" lon="1.80989">
        <ele>1.0986328</ele>
        <time>2012-05-20T15:37:50Z</time>
      </trkpt>
      <trkpt lat="50.45833" lon="1.80941">
        <ele>2.0600586</ele>
        <time>2012-05-20T15:38:11Z</time>
      </trkpt>
      <trkpt lat="50.45833" lon="1.80937">
        <ele>4.9438477</ele>
        <time>2012-05-20T15:38:28Z</time>
      </trkpt>
      <trkpt lat="50.4583" lon="1.80941">
        <ele>2.5406494</ele>
        <time>2012-05-20T15:38:43Z</time>
      </trkpt>
      <trkpt lat="50.45829" lon="1.80945">
        <ele>1.5793457</ele>
        <time>2012-05-20T15:39:06Z</time>
      </trkpt>
      <trkpt lat="50.45828" lon="1.80936">
        <ele>3.0212402</ele>
        <time>2012-05-20T15:39:25Z</time>
      </trkpt>
      <trkpt lat="50.45831" lon="1.8092">
        <ele>2.0600586</ele>
        <time>2012-05-20T15:39:47Z</time>
      </trkpt>
      <trkpt lat="50.45831" lon="1.80912">
        <ele>0.1374512</ele>
        <time>2012-05-20T15:39:55Z</time>
      </trkpt>
      <trkpt lat="50.45828" lon="1.80841">
        <ele>0.618042</ele>
        <time>2012-05-20T15:40:19Z</time>
      </trkpt>
      <trkpt lat="50.45846" lon="1.80777">
        <ele>-1.3046875</ele>
        <time>2012-05-20T15:40:42Z</time>
      </trkpt>
      <trkpt lat="50.45893" lon="1.80663">
        <ele>-5.6304932</ele>
        <time>2012-05-20T15:41:32Z</time>
      </trkpt>
      <trkpt lat="50.45869" lon="1.80604">
        <ele>-6.1112061</ele>
        <time>2012-05-20T15:41:55Z</time>
      </trkpt>
      <trkpt lat="50.45838" lon="1.80544">
        <ele>-3.2272949</ele>
        <time>2012-05-20T15:42:18Z</time>
      </trkpt>
      <trkpt lat="50.45827" lon="1.80482">
        <ele>-4.1885986</ele>
        <time>2012-05-20T15:42:39Z</time>
      </trkpt>
      <trkpt lat="50.45846" lon="1.80426">
        <ele>-4.6693115</ele>
        <time>2012-05-20T15:42:59Z</time>
      </trkpt>
      <trkpt lat="50.45857" lon="1.80349">
        <ele>-4.6693115</ele>
        <time>2012-05-20T15:43:28Z</time>
      </trkpt>
      <trkpt lat="50.45861" lon="1.80289">
        <ele>-5.1499023</ele>
        <time>2012-05-20T15:43:49Z</time>
      </trkpt>
      <trkpt lat="50.45865" lon="1.80219">
        <ele>-3.7078857</ele>
        <time>2012-05-20T15:44:12Z</time>
      </trkpt>
      <trkpt lat="50.45893" lon="1.80054">
        <ele>-6.5919189</ele>
        <time>2012-05-20T15:45:05Z</time>
      </trkpt>
      <trkpt lat="50.45907" lon="1.79978">
        <ele>-6.5919189</ele>
        <time>2012-05-20T15:45:29Z</time>
      </trkpt>
      <trkpt lat="50.4592" lon="1.799">
        <ele>-5.1499023</ele>
        <time>2012-05-20T15:45:54Z</time>
      </trkpt>
      <trkpt lat="50.45939" lon="1.79811">
        <ele>-6.5919189</ele>
        <time>2012-05-20T15:46:23Z</time>
      </trkpt>
      <trkpt lat="50.45954" lon="1.79739">
        <ele>-6.1112061</ele>
        <time>2012-05-20T15:46:46Z</time>
      </trkpt>
      <trkpt lat="50.45968" lon="1.79641">
        <ele>-5.1499023</ele>
        <time>2012-05-20T15:47:16Z</time>
      </trkpt>
      <trkpt lat="50.45981" lon="1.79568">
        <ele>-3.2272949</ele>
        <time>2012-05-20T15:47:41Z</time>
      </trkpt>
      <trkpt lat="50.45989" lon="1.79506">
        <ele>-3.2272949</ele>
        <time>2012-05-20T15:48:02Z</time>
      </trkpt>
      <trkpt lat="50.46002" lon="1.79427">
        <ele>-4.1885986</ele>
        <time>2012-05-20T15:48:28Z</time>
      </trkpt>
      <trkpt lat="50.46018" lon="1.7936">
        <ele>-4.6693115</ele>
        <time>2012-05-20T15:48:52Z</time>
      </trkpt>
      <trkpt lat="50.46031" lon="1.79277">
        <ele>-5.6304932</ele>
        <time>2012-05-20T15:49:18Z</time>
      </trkpt>
      <trkpt lat="50.46042" lon="1.79185">
        <ele>-6.5919189</ele>
        <time>2012-05-20T15:49:46Z</time>
      </trkpt>
      <trkpt lat="50.46066" lon="1.79105">
        <ele>-6.5919189</ele>
        <time>2012-05-20T15:50:14Z</time>
      </trkpt>
      <trkpt lat="50.46106" lon="1.79033">
        <ele>-3.2272949</ele>
        <time>2012-05-20T15:50:44Z</time>
      </trkpt>
      <trkpt lat="50.46137" lon="1.78952">
        <ele>-3.7078857</ele>
        <time>2012-05-20T15:51:14Z</time>
      </trkpt>
      <trkpt lat="50.46143" lon="1.78896">
        <ele>-3.2272949</ele>
        <time>2012-05-20T15:51:36Z</time>
      </trkpt>
      <trkpt lat="50.46128" lon="1.78831">
        <ele>-2.7467041</ele>
        <time>2012-05-20T15:51:59Z</time>
      </trkpt>
      <trkpt lat="50.46118" lon="1.78759">
        <ele>-3.2272949</ele>
        <time>2012-05-20T15:52:21Z</time>
      </trkpt>
      <trkpt lat="50.46121" lon="1.78695">
        <ele>-2.7467041</ele>
        <time>2012-05-20T15:52:42Z</time>
      </trkpt>
      <trkpt lat="50.46182" lon="1.78557">
        <ele>-1.3046875</ele>
        <time>2012-05-20T15:53:37Z</time>
      </trkpt>
      <trkpt lat="50.46198" lon="1.78491">
        <ele>-3.7078857</ele>
        <time>2012-05-20T15:54:00Z</time>
      </trkpt>
      <trkpt lat="50.46215" lon="1.7841">
        <ele>-4.1885986</ele>
        <time>2012-05-20T15:54:28Z</time>
      </trkpt>
      <trkpt lat="50.4623" lon="1.78335">
        <ele>-3.2272949</ele>
        <time>2012-05-20T15:54:54Z</time>
      </trkpt>
      <trkpt lat="50.4626" lon="1.78267">
        <ele>-2.7467041</ele>
        <time>2012-05-20T15:55:21Z</time>
      </trkpt>
      <trkpt lat="50.46302" lon="1.78234">
        <ele>-4.1885986</ele>
        <time>2012-05-20T15:55:45Z</time>
      </trkpt>
      <trkpt lat="50.46345" lon="1.78201">
        <ele>-3.7078857</ele>
        <time>2012-05-20T15:56:10Z</time>
      </trkpt>
      <trkpt lat="50.46428" lon="1.78081">
        <ele>-3.7078857</ele>
        <time>2012-05-20T15:57:11Z</time>
      </trkpt>
      <trkpt lat="50.46438" lon="1.78019">
        <ele>-3.2272949</ele>
        <time>2012-05-20T15:57:31Z</time>
      </trkpt>
      <trkpt lat="50.4643" lon="1.77948">
        <ele>-6.1112061</ele>
        <time>2012-05-20T15:57:54Z</time>
      </trkpt>
      <trkpt lat="50.46418" lon="1.77872">
        <ele>-8.5146484</ele>
        <time>2012-05-20T15:58:19Z</time>
      </trkpt>
      <trkpt lat="50.46421" lon="1.77781">
        <ele>-8.0339355</ele>
        <time>2012-05-20T15:58:47Z</time>
      </trkpt>
      <trkpt lat="50.4643" lon="1.777">
        <ele>-6.1112061</ele>
        <time>2012-05-20T15:59:13Z</time>
      </trkpt>
      <trkpt lat="50.46431" lon="1.7762">
        <ele>-7.0725098</ele>
        <time>2012-05-20T15:59:37Z</time>
      </trkpt>
      <trkpt lat="50.46424" lon="1.77545">
        <ele>-7.0725098</ele>
        <time>2012-05-20T16:00:02Z</time>
      </trkpt>
      <trkpt lat="50.46419" lon="1.7748">
        <ele>-5.6304932</ele>
        <time>2012-05-20T16:00:24Z</time>
      </trkpt>
      <trkpt lat="50.46427" lon="1.77421">
        <ele>-5.1499023</ele>
        <time>2012-05-20T16:00:41Z</time>
      </trkpt>
      <trkpt lat="50.46432" lon="1.77338">
        <ele>-0.8240967</ele>
        <time>2012-05-20T16:01:05Z</time>
      </trkpt>
      <trkpt lat="50.46439" lon="1.77258">
        <ele>2.0600586</ele>
        <time>2012-05-20T16:01:28Z</time>
      </trkpt>
      <trkpt lat="50.4646" lon="1.77202">
        <ele>3.982666</ele>
        <time>2012-05-20T16:01:48Z</time>
      </trkpt>
      <trkpt lat="50.46483" lon="1.77161">
        <ele>4.4632568</ele>
        <time>2012-05-20T16:02:12Z</time>
      </trkpt>
      <trkpt lat="50.4649" lon="1.77161">
        <ele>3.0212402</ele>
        <time>2012-05-20T16:02:37Z</time>
      </trkpt>
      <trkpt lat="50.4649" lon="1.77165">
        <ele>6.8664551</ele>
        <time>2012-05-20T16:03:13Z</time>
      </trkpt>
      <trkpt lat="50.46491" lon="1.77165">
        <ele>7.347168</ele>
        <time>2012-05-20T16:03:56Z</time>
      </trkpt>
    </trkseg>
  </trk>
</gpx>